<?xml version="1.0" encoding="UTF-8" standalone="no" ?>
<gpx xmlns="http://www.topografix.com/GPX/1/1" xmlns:xsi="http://www.w3.org/2001/XMLSchema-instance" xsi:schemaLocation="http://www.topografix.com/GPX/1/1 http://www.topografix.com/GPX/1/1/gpx.xsd" version="1.1" creator="VisuGPX - https://www.visugpx.com">
  <metadata>
    <name>Trail Salève</name>
    <desc><![CDATA[Montée du Salève depuis \"Le coin\". Retour par la route.]]></desc>
  </metadata>
  <trk>
    <name><![CDATA[28-JAN-13 05:19:00 PM]]></name>
    <trkseg>
      <trkpt lat="46.13456" lon="6.16005">
        <ele>665.85</ele>
        <time>2013-01-28T14:34:58Z</time>
      </trkpt>
      <trkpt lat="46.13454" lon="6.16014">
        <ele>665.37</ele>
        <time>2013-01-28T14:35:01Z</time>
      </trkpt>
      <trkpt lat="46.13453" lon="6.16047">
        <ele>669.7</ele>
        <time>2013-01-28T14:35:11Z</time>
      </trkpt>
      <trkpt lat="46.13454" lon="6.16086">
        <ele>672.58</ele>
        <time>2013-01-28T14:35:22Z</time>
      </trkpt>
      <trkpt lat="46.13451" lon="6.16117">
        <ele>675.46</ele>
        <time>2013-01-28T14:35:32Z</time>
      </trkpt>
      <trkpt lat="46.13453" lon="6.16143">
        <ele>678.83</ele>
        <time>2013-01-28T14:35:42Z</time>
      </trkpt>
      <trkpt lat="46.13459" lon="6.16174">
        <ele>679.31</ele>
        <time>2013-01-28T14:35:52Z</time>
      </trkpt>
      <trkpt lat="46.13459" lon="6.16219">
        <ele>681.71</ele>
        <time>2013-01-28T14:36:05Z</time>
      </trkpt>
      <trkpt lat="46.13451" lon="6.16245">
        <ele>684.6</ele>
        <time>2013-01-28T14:36:15Z</time>
      </trkpt>
      <trkpt lat="46.1345" lon="6.16264">
        <ele>687.96</ele>
        <time>2013-01-28T14:36:24Z</time>
      </trkpt>
      <trkpt lat="46.13451" lon="6.16269">
        <ele>688.92</ele>
        <time>2013-01-28T14:36:26Z</time>
      </trkpt>
      <trkpt lat="46.13467" lon="6.16287">
        <ele>691.81</ele>
        <time>2013-01-28T14:36:38Z</time>
      </trkpt>
      <trkpt lat="46.1347" lon="6.16287">
        <ele>691.81</ele>
        <time>2013-01-28T14:36:39Z</time>
      </trkpt>
      <trkpt lat="46.13487" lon="6.16283">
        <ele>692.29</ele>
        <time>2013-01-28T14:36:49Z</time>
      </trkpt>
      <trkpt lat="46.1349" lon="6.16281">
        <ele>690.84</ele>
        <time>2013-01-28T14:36:55Z</time>
      </trkpt>
      <trkpt lat="46.13492" lon="6.1628">
        <ele>690.36</ele>
        <time>2013-01-28T14:36:57Z</time>
      </trkpt>
      <trkpt lat="46.13495" lon="6.16276">
        <ele>688.92</ele>
        <time>2013-01-28T14:36:59Z</time>
      </trkpt>
      <trkpt lat="46.13498" lon="6.16274">
        <ele>688.44</ele>
        <time>2013-01-28T14:37:02Z</time>
      </trkpt>
      <trkpt lat="46.13499" lon="6.16272">
        <ele>687</ele>
        <time>2013-01-28T14:37:04Z</time>
      </trkpt>
      <trkpt lat="46.1351" lon="6.16259">
        <ele>684.6</ele>
        <time>2013-01-28T14:37:16Z</time>
      </trkpt>
      <trkpt lat="46.13516" lon="6.16254">
        <ele>682.19</ele>
        <time>2013-01-28T14:37:23Z</time>
      </trkpt>
      <trkpt lat="46.13517" lon="6.16253">
        <ele>682.19</ele>
        <time>2013-01-28T14:37:24Z</time>
      </trkpt>
      <trkpt lat="46.13518" lon="6.16249">
        <ele>681.23</ele>
        <time>2013-01-28T14:37:26Z</time>
      </trkpt>
      <trkpt lat="46.13519" lon="6.16241">
        <ele>680.75</ele>
        <time>2013-01-28T14:37:31Z</time>
      </trkpt>
      <trkpt lat="46.13521" lon="6.16242">
        <ele>679.79</ele>
        <time>2013-01-28T14:37:34Z</time>
      </trkpt>
      <trkpt lat="46.13523" lon="6.16236">
        <ele>677.87</ele>
        <time>2013-01-28T14:37:37Z</time>
      </trkpt>
      <trkpt lat="46.1353" lon="6.16232">
        <ele>678.83</ele>
        <time>2013-01-28T14:37:46Z</time>
      </trkpt>
      <trkpt lat="46.13534" lon="6.16225">
        <ele>676.91</ele>
        <time>2013-01-28T14:37:53Z</time>
      </trkpt>
      <trkpt lat="46.13535" lon="6.16224">
        <ele>675.94</ele>
        <time>2013-01-28T14:38:01Z</time>
      </trkpt>
      <trkpt lat="46.1354" lon="6.1622">
        <ele>674.98</ele>
        <time>2013-01-28T14:38:05Z</time>
      </trkpt>
      <trkpt lat="46.13548" lon="6.16216">
        <ele>673.54</ele>
        <time>2013-01-28T14:38:09Z</time>
      </trkpt>
      <trkpt lat="46.13557" lon="6.1621">
        <ele>670.66</ele>
        <time>2013-01-28T14:38:15Z</time>
      </trkpt>
      <trkpt lat="46.1356" lon="6.1621">
        <ele>670.66</ele>
        <time>2013-01-28T14:38:16Z</time>
      </trkpt>
      <trkpt lat="46.13572" lon="6.16206">
        <ele>669.7</ele>
        <time>2013-01-28T14:38:19Z</time>
      </trkpt>
      <trkpt lat="46.13578" lon="6.16205">
        <ele>668.73</ele>
        <time>2013-01-28T14:38:21Z</time>
      </trkpt>
      <trkpt lat="46.13594" lon="6.16194">
        <ele>667.77</ele>
        <time>2013-01-28T14:38:26Z</time>
      </trkpt>
      <trkpt lat="46.13617" lon="6.1618">
        <ele>665.37</ele>
        <time>2013-01-28T14:38:35Z</time>
      </trkpt>
      <trkpt lat="46.13619" lon="6.16178">
        <ele>664.89</ele>
        <time>2013-01-28T14:38:36Z</time>
      </trkpt>
      <trkpt lat="46.1363" lon="6.16173">
        <ele>662.97</ele>
        <time>2013-01-28T14:38:41Z</time>
      </trkpt>
      <trkpt lat="46.13644" lon="6.16194">
        <ele>658.64</ele>
        <time>2013-01-28T14:38:51Z</time>
      </trkpt>
      <trkpt lat="46.13644" lon="6.16199">
        <ele>658.64</ele>
        <time>2013-01-28T14:38:52Z</time>
      </trkpt>
      <trkpt lat="46.13659" lon="6.16232">
        <ele>655.28</ele>
        <time>2013-01-28T14:39:00Z</time>
      </trkpt>
      <trkpt lat="46.13674" lon="6.1625">
        <ele>652.87</ele>
        <time>2013-01-28T14:39:09Z</time>
      </trkpt>
      <trkpt lat="46.13677" lon="6.16255">
        <ele>652.87</ele>
        <time>2013-01-28T14:39:11Z</time>
      </trkpt>
      <trkpt lat="46.1368" lon="6.16283">
        <ele>656.24</ele>
        <time>2013-01-28T14:39:19Z</time>
      </trkpt>
      <trkpt lat="46.13692" lon="6.16306">
        <ele>657.2</ele>
        <time>2013-01-28T14:39:28Z</time>
      </trkpt>
      <trkpt lat="46.13712" lon="6.16325">
        <ele>657.2</ele>
        <time>2013-01-28T14:39:38Z</time>
      </trkpt>
      <trkpt lat="46.13717" lon="6.16329">
        <ele>657.2</ele>
        <time>2013-01-28T14:39:41Z</time>
      </trkpt>
      <trkpt lat="46.1374" lon="6.16325">
        <ele>655.76</ele>
        <time>2013-01-28T14:39:51Z</time>
      </trkpt>
      <trkpt lat="46.13749" lon="6.16317">
        <ele>655.28</ele>
        <time>2013-01-28T14:39:55Z</time>
      </trkpt>
      <trkpt lat="46.13756" lon="6.16305">
        <ele>655.28</ele>
        <time>2013-01-28T14:39:59Z</time>
      </trkpt>
      <trkpt lat="46.13769" lon="6.16296">
        <ele>655.28</ele>
        <time>2013-01-28T14:40:05Z</time>
      </trkpt>
      <trkpt lat="46.13783" lon="6.16283">
        <ele>653.35</ele>
        <time>2013-01-28T14:40:11Z</time>
      </trkpt>
      <trkpt lat="46.138" lon="6.16274">
        <ele>651.43</ele>
        <time>2013-01-28T14:40:18Z</time>
      </trkpt>
      <trkpt lat="46.13805" lon="6.16272">
        <ele>650.95</ele>
        <time>2013-01-28T14:40:21Z</time>
      </trkpt>
      <trkpt lat="46.13812" lon="6.16261">
        <ele>649.03</ele>
        <time>2013-01-28T14:40:26Z</time>
      </trkpt>
      <trkpt lat="46.13812" lon="6.16256">
        <ele>648.07</ele>
        <time>2013-01-28T14:40:28Z</time>
      </trkpt>
      <trkpt lat="46.13814" lon="6.16252">
        <ele>646.62</ele>
        <time>2013-01-28T14:40:30Z</time>
      </trkpt>
      <trkpt lat="46.1382" lon="6.16239">
        <ele>642.78</ele>
        <time>2013-01-28T14:40:36Z</time>
      </trkpt>
      <trkpt lat="46.13821" lon="6.16236">
        <ele>642.78</ele>
        <time>2013-01-28T14:40:37Z</time>
      </trkpt>
      <trkpt lat="46.13824" lon="6.16223">
        <ele>639.41</ele>
        <time>2013-01-28T14:40:42Z</time>
      </trkpt>
      <trkpt lat="46.13832" lon="6.16203">
        <ele>637.01</ele>
        <time>2013-01-28T14:40:47Z</time>
      </trkpt>
      <trkpt lat="46.13838" lon="6.16191">
        <ele>636.53</ele>
        <time>2013-01-28T14:40:50Z</time>
      </trkpt>
      <trkpt lat="46.13841" lon="6.16169">
        <ele>634.13</ele>
        <time>2013-01-28T14:40:59Z</time>
      </trkpt>
      <trkpt lat="46.13842" lon="6.16168">
        <ele>634.13</ele>
        <time>2013-01-28T14:41:00Z</time>
      </trkpt>
      <trkpt lat="46.13844" lon="6.16166">
        <ele>631.72</ele>
        <time>2013-01-28T14:41:08Z</time>
      </trkpt>
      <trkpt lat="46.13851" lon="6.16162">
        <ele>628.84</ele>
        <time>2013-01-28T14:41:13Z</time>
      </trkpt>
      <trkpt lat="46.13853" lon="6.16163">
        <ele>628.84</ele>
        <time>2013-01-28T14:41:14Z</time>
      </trkpt>
      <trkpt lat="46.1387" lon="6.16184">
        <ele>627.4</ele>
        <time>2013-01-28T14:41:24Z</time>
      </trkpt>
      <trkpt lat="46.13899" lon="6.16219">
        <ele>624.03</ele>
        <time>2013-01-28T14:41:36Z</time>
      </trkpt>
      <trkpt lat="46.13934" lon="6.16254">
        <ele>622.59</ele>
        <time>2013-01-28T14:41:49Z</time>
      </trkpt>
      <trkpt lat="46.13965" lon="6.16255">
        <ele>622.11</ele>
        <time>2013-01-28T14:42:00Z</time>
      </trkpt>
      <trkpt lat="46.13975" lon="6.16263">
        <ele>619.71</ele>
        <time>2013-01-28T14:42:05Z</time>
      </trkpt>
      <trkpt lat="46.1399" lon="6.16272">
        <ele>621.15</ele>
        <time>2013-01-28T14:42:14Z</time>
      </trkpt>
      <trkpt lat="46.14003" lon="6.16297">
        <ele>619.71</ele>
        <time>2013-01-28T14:42:25Z</time>
      </trkpt>
      <trkpt lat="46.14037" lon="6.16325">
        <ele>618.26</ele>
        <time>2013-01-28T14:42:38Z</time>
      </trkpt>
      <trkpt lat="46.14057" lon="6.16358">
        <ele>615.38</ele>
        <time>2013-01-28T14:42:48Z</time>
      </trkpt>
      <trkpt lat="46.14076" lon="6.16383">
        <ele>612.98</ele>
        <time>2013-01-28T14:43:00Z</time>
      </trkpt>
      <trkpt lat="46.14099" lon="6.16405">
        <ele>610.09</ele>
        <time>2013-01-28T14:43:09Z</time>
      </trkpt>
      <trkpt lat="46.14106" lon="6.16423">
        <ele>609.13</ele>
        <time>2013-01-28T14:43:13Z</time>
      </trkpt>
      <trkpt lat="46.14135" lon="6.16471">
        <ele>608.65</ele>
        <time>2013-01-28T14:43:27Z</time>
      </trkpt>
      <trkpt lat="46.14165" lon="6.16512">
        <ele>609.61</ele>
        <time>2013-01-28T14:43:42Z</time>
      </trkpt>
      <trkpt lat="46.14189" lon="6.1655">
        <ele>609.61</ele>
        <time>2013-01-28T14:43:54Z</time>
      </trkpt>
      <trkpt lat="46.14213" lon="6.16588">
        <ele>609.61</ele>
        <time>2013-01-28T14:44:05Z</time>
      </trkpt>
      <trkpt lat="46.14235" lon="6.16619">
        <ele>609.61</ele>
        <time>2013-01-28T14:44:16Z</time>
      </trkpt>
      <trkpt lat="46.14264" lon="6.16651">
        <ele>609.13</ele>
        <time>2013-01-28T14:44:30Z</time>
      </trkpt>
      <trkpt lat="46.14295" lon="6.16672">
        <ele>609.13</ele>
        <time>2013-01-28T14:44:42Z</time>
      </trkpt>
      <trkpt lat="46.14321" lon="6.16687">
        <ele>608.17</ele>
        <time>2013-01-28T14:44:52Z</time>
      </trkpt>
      <trkpt lat="46.1433" lon="6.16693">
        <ele>607.69</ele>
        <time>2013-01-28T14:44:57Z</time>
      </trkpt>
      <trkpt lat="46.14329" lon="6.16702">
        <ele>609.61</ele>
        <time>2013-01-28T14:45:04Z</time>
      </trkpt>
      <trkpt lat="46.14324" lon="6.16708">
        <ele>611.06</ele>
        <time>2013-01-28T14:45:07Z</time>
      </trkpt>
      <trkpt lat="46.14298" lon="6.16719">
        <ele>614.42</ele>
        <time>2013-01-28T14:45:21Z</time>
      </trkpt>
      <trkpt lat="46.14292" lon="6.16723">
        <ele>615.38</ele>
        <time>2013-01-28T14:45:24Z</time>
      </trkpt>
      <trkpt lat="46.14291" lon="6.1673">
        <ele>615.86</ele>
        <time>2013-01-28T14:45:27Z</time>
      </trkpt>
      <trkpt lat="46.14315" lon="6.16768">
        <ele>615.86</ele>
        <time>2013-01-28T14:45:41Z</time>
      </trkpt>
      <trkpt lat="46.14327" lon="6.16801">
        <ele>616.34</ele>
        <time>2013-01-28T14:45:51Z</time>
      </trkpt>
      <trkpt lat="46.14341" lon="6.16846">
        <ele>613.94</ele>
        <time>2013-01-28T14:46:03Z</time>
      </trkpt>
      <trkpt lat="46.14356" lon="6.16883">
        <ele>614.9</ele>
        <time>2013-01-28T14:46:14Z</time>
      </trkpt>
      <trkpt lat="46.14379" lon="6.16932">
        <ele>614.42</ele>
        <time>2013-01-28T14:46:28Z</time>
      </trkpt>
      <trkpt lat="46.14392" lon="6.16974">
        <ele>614.9</ele>
        <time>2013-01-28T14:46:40Z</time>
      </trkpt>
      <trkpt lat="46.14393" lon="6.16982">
        <ele>614.9</ele>
        <time>2013-01-28T14:46:42Z</time>
      </trkpt>
      <trkpt lat="46.1441" lon="6.17019">
        <ele>615.86</ele>
        <time>2013-01-28T14:46:54Z</time>
      </trkpt>
      <trkpt lat="46.14435" lon="6.1705">
        <ele>614.42</ele>
        <time>2013-01-28T14:47:06Z</time>
      </trkpt>
      <trkpt lat="46.14454" lon="6.17085">
        <ele>613.94</ele>
        <time>2013-01-28T14:47:17Z</time>
      </trkpt>
      <trkpt lat="46.14474" lon="6.1711">
        <ele>613.46</ele>
        <time>2013-01-28T14:47:29Z</time>
      </trkpt>
      <trkpt lat="46.14481" lon="6.17116">
        <ele>612.02</ele>
        <time>2013-01-28T14:47:32Z</time>
      </trkpt>
      <trkpt lat="46.14485" lon="6.17125">
        <ele>612.02</ele>
        <time>2013-01-28T14:47:36Z</time>
      </trkpt>
      <trkpt lat="46.14489" lon="6.17133">
        <ele>611.54</ele>
        <time>2013-01-28T14:47:39Z</time>
      </trkpt>
      <trkpt lat="46.14491" lon="6.1715">
        <ele>610.57</ele>
        <time>2013-01-28T14:47:45Z</time>
      </trkpt>
      <trkpt lat="46.14503" lon="6.17191">
        <ele>609.61</ele>
        <time>2013-01-28T14:47:56Z</time>
      </trkpt>
      <trkpt lat="46.14502" lon="6.17199">
        <ele>610.57</ele>
        <time>2013-01-28T14:47:58Z</time>
      </trkpt>
      <trkpt lat="46.1452" lon="6.1723">
        <ele>610.09</ele>
        <time>2013-01-28T14:48:10Z</time>
      </trkpt>
      <trkpt lat="46.14538" lon="6.17257">
        <ele>608.65</ele>
        <time>2013-01-28T14:48:21Z</time>
      </trkpt>
      <trkpt lat="46.14545" lon="6.17258">
        <ele>607.21</ele>
        <time>2013-01-28T14:48:23Z</time>
      </trkpt>
      <trkpt lat="46.14574" lon="6.17269">
        <ele>604.33</ele>
        <time>2013-01-28T14:48:35Z</time>
      </trkpt>
      <trkpt lat="46.14588" lon="6.17294">
        <ele>602.4</ele>
        <time>2013-01-28T14:48:44Z</time>
      </trkpt>
      <trkpt lat="46.14592" lon="6.17303">
        <ele>601.92</ele>
        <time>2013-01-28T14:48:46Z</time>
      </trkpt>
      <trkpt lat="46.14602" lon="6.17317">
        <ele>601.44</ele>
        <time>2013-01-28T14:48:50Z</time>
      </trkpt>
      <trkpt lat="46.1463" lon="6.17366">
        <ele>598.56</ele>
        <time>2013-01-28T14:49:05Z</time>
      </trkpt>
      <trkpt lat="46.14635" lon="6.17394">
        <ele>600.48</ele>
        <time>2013-01-28T14:49:16Z</time>
      </trkpt>
      <trkpt lat="46.14624" lon="6.17409">
        <ele>604.33</ele>
        <time>2013-01-28T14:49:27Z</time>
      </trkpt>
      <trkpt lat="46.14619" lon="6.1743">
        <ele>607.21</ele>
        <time>2013-01-28T14:49:35Z</time>
      </trkpt>
      <trkpt lat="46.14612" lon="6.17448">
        <ele>610.57</ele>
        <time>2013-01-28T14:49:45Z</time>
      </trkpt>
      <trkpt lat="46.14605" lon="6.17462">
        <ele>613.94</ele>
        <time>2013-01-28T14:49:54Z</time>
      </trkpt>
      <trkpt lat="46.14597" lon="6.17471">
        <ele>616.82</ele>
        <time>2013-01-28T14:50:02Z</time>
      </trkpt>
      <trkpt lat="46.14595" lon="6.17473">
        <ele>617.78</ele>
        <time>2013-01-28T14:50:04Z</time>
      </trkpt>
      <trkpt lat="46.14596" lon="6.17478">
        <ele>619.71</ele>
        <time>2013-01-28T14:50:09Z</time>
      </trkpt>
      <trkpt lat="46.14598" lon="6.17485">
        <ele>620.67</ele>
        <time>2013-01-28T14:50:12Z</time>
      </trkpt>
      <trkpt lat="46.14605" lon="6.17505">
        <ele>624.03</ele>
        <time>2013-01-28T14:50:23Z</time>
      </trkpt>
      <trkpt lat="46.14605" lon="6.17515">
        <ele>626.92</ele>
        <time>2013-01-28T14:50:30Z</time>
      </trkpt>
      <trkpt lat="46.14598" lon="6.17529">
        <ele>628.84</ele>
        <time>2013-01-28T14:50:37Z</time>
      </trkpt>
      <trkpt lat="46.14599" lon="6.17552">
        <ele>632.2</ele>
        <time>2013-01-28T14:50:48Z</time>
      </trkpt>
      <trkpt lat="46.146" lon="6.17569">
        <ele>635.57</ele>
        <time>2013-01-28T14:50:58Z</time>
      </trkpt>
      <trkpt lat="46.14599" lon="6.17585">
        <ele>638.45</ele>
        <time>2013-01-28T14:51:07Z</time>
      </trkpt>
      <trkpt lat="46.14599" lon="6.17601">
        <ele>642.3</ele>
        <time>2013-01-28T14:51:17Z</time>
      </trkpt>
      <trkpt lat="46.14599" lon="6.17602">
        <ele>642.3</ele>
        <time>2013-01-28T14:51:18Z</time>
      </trkpt>
      <trkpt lat="46.14597" lon="6.17614">
        <ele>645.18</ele>
        <time>2013-01-28T14:51:25Z</time>
      </trkpt>
      <trkpt lat="46.1459" lon="6.17623">
        <ele>648.55</ele>
        <time>2013-01-28T14:51:35Z</time>
      </trkpt>
      <trkpt lat="46.14585" lon="6.17628">
        <ele>650.47</ele>
        <time>2013-01-28T14:51:40Z</time>
      </trkpt>
      <trkpt lat="46.14582" lon="6.1763">
        <ele>651.43</ele>
        <time>2013-01-28T14:51:42Z</time>
      </trkpt>
      <trkpt lat="46.14574" lon="6.17634">
        <ele>654.31</ele>
        <time>2013-01-28T14:51:50Z</time>
      </trkpt>
      <trkpt lat="46.14563" lon="6.17638">
        <ele>657.68</ele>
        <time>2013-01-28T14:51:59Z</time>
      </trkpt>
      <trkpt lat="46.14557" lon="6.17631">
        <ele>660.56</ele>
        <time>2013-01-28T14:52:06Z</time>
      </trkpt>
      <trkpt lat="46.14556" lon="6.17631">
        <ele>661.04</ele>
        <time>2013-01-28T14:52:07Z</time>
      </trkpt>
      <trkpt lat="46.14548" lon="6.17618">
        <ele>662.01</ele>
        <time>2013-01-28T14:52:17Z</time>
      </trkpt>
      <trkpt lat="46.14546" lon="6.1761">
        <ele>661.04</ele>
        <time>2013-01-28T14:52:21Z</time>
      </trkpt>
      <trkpt lat="46.14532" lon="6.1759">
        <ele>662.49</ele>
        <time>2013-01-28T14:52:32Z</time>
      </trkpt>
      <trkpt lat="46.14517" lon="6.17595">
        <ele>666.33</ele>
        <time>2013-01-28T14:52:45Z</time>
      </trkpt>
      <trkpt lat="46.14517" lon="6.17605">
        <ele>670.18</ele>
        <time>2013-01-28T14:52:54Z</time>
      </trkpt>
      <trkpt lat="46.14516" lon="6.17616">
        <ele>673.06</ele>
        <time>2013-01-28T14:53:06Z</time>
      </trkpt>
      <trkpt lat="46.14517" lon="6.17618">
        <ele>674.02</ele>
        <time>2013-01-28T14:53:08Z</time>
      </trkpt>
      <trkpt lat="46.14511" lon="6.17616">
        <ele>677.39</ele>
        <time>2013-01-28T14:53:20Z</time>
      </trkpt>
      <trkpt lat="46.14511" lon="6.17615">
        <ele>677.87</ele>
        <time>2013-01-28T14:53:21Z</time>
      </trkpt>
      <trkpt lat="46.14509" lon="6.17612">
        <ele>678.83</ele>
        <time>2013-01-28T14:53:23Z</time>
      </trkpt>
      <trkpt lat="46.14505" lon="6.17608">
        <ele>680.75</ele>
        <time>2013-01-28T14:53:30Z</time>
      </trkpt>
      <trkpt lat="46.14503" lon="6.17603">
        <ele>683.63</ele>
        <time>2013-01-28T14:53:38Z</time>
      </trkpt>
      <trkpt lat="46.14494" lon="6.17608">
        <ele>687</ele>
        <time>2013-01-28T14:53:47Z</time>
      </trkpt>
      <trkpt lat="46.14494" lon="6.17607">
        <ele>687</ele>
        <time>2013-01-28T14:53:48Z</time>
      </trkpt>
      <trkpt lat="46.14491" lon="6.1761">
        <ele>688.92</ele>
        <time>2013-01-28T14:53:56Z</time>
      </trkpt>
      <trkpt lat="46.1449" lon="6.17612">
        <ele>690.84</ele>
        <time>2013-01-28T14:54:02Z</time>
      </trkpt>
      <trkpt lat="46.14486" lon="6.1763">
        <ele>694.69</ele>
        <time>2013-01-28T14:54:11Z</time>
      </trkpt>
      <trkpt lat="46.14481" lon="6.17628">
        <ele>698.05</ele>
        <time>2013-01-28T14:54:22Z</time>
      </trkpt>
      <trkpt lat="46.14478" lon="6.17628">
        <ele>699.02</ele>
        <time>2013-01-28T14:54:27Z</time>
      </trkpt>
      <trkpt lat="46.14468" lon="6.17626">
        <ele>702.38</ele>
        <time>2013-01-28T14:54:38Z</time>
      </trkpt>
      <trkpt lat="46.14463" lon="6.17632">
        <ele>705.75</ele>
        <time>2013-01-28T14:54:50Z</time>
      </trkpt>
      <trkpt lat="46.14462" lon="6.17634">
        <ele>706.23</ele>
        <time>2013-01-28T14:54:55Z</time>
      </trkpt>
      <trkpt lat="46.14464" lon="6.17639">
        <ele>707.19</ele>
        <time>2013-01-28T14:54:59Z</time>
      </trkpt>
      <trkpt lat="46.14465" lon="6.17655">
        <ele>710.55</ele>
        <time>2013-01-28T14:55:12Z</time>
      </trkpt>
      <trkpt lat="46.14467" lon="6.17664">
        <ele>713.92</ele>
        <time>2013-01-28T14:55:22Z</time>
      </trkpt>
      <trkpt lat="46.14465" lon="6.17662">
        <ele>714.88</ele>
        <time>2013-01-28T14:55:44Z</time>
      </trkpt>
      <trkpt lat="46.14457" lon="6.1766">
        <ele>718.24</ele>
        <time>2013-01-28T14:55:54Z</time>
      </trkpt>
      <trkpt lat="46.14456" lon="6.17661">
        <ele>719.2</ele>
        <time>2013-01-28T14:56:00Z</time>
      </trkpt>
      <trkpt lat="46.14452" lon="6.17661">
        <ele>720.65</ele>
        <time>2013-01-28T14:56:12Z</time>
      </trkpt>
      <trkpt lat="46.14447" lon="6.17661">
        <ele>722.09</ele>
        <time>2013-01-28T14:56:17Z</time>
      </trkpt>
      <trkpt lat="46.14449" lon="6.17667">
        <ele>725.45</ele>
        <time>2013-01-28T14:56:29Z</time>
      </trkpt>
      <trkpt lat="46.14453" lon="6.17675">
        <ele>728.34</ele>
        <time>2013-01-28T14:56:39Z</time>
      </trkpt>
      <trkpt lat="46.14447" lon="6.17673">
        <ele>731.22</ele>
        <time>2013-01-28T14:56:49Z</time>
      </trkpt>
      <trkpt lat="46.14446" lon="6.17673">
        <ele>731.22</ele>
        <time>2013-01-28T14:56:50Z</time>
      </trkpt>
      <trkpt lat="46.14438" lon="6.17673">
        <ele>733.14</ele>
        <time>2013-01-28T14:56:59Z</time>
      </trkpt>
      <trkpt lat="46.14432" lon="6.17672">
        <ele>736.51</ele>
        <time>2013-01-28T14:57:11Z</time>
      </trkpt>
      <trkpt lat="46.14434" lon="6.1768">
        <ele>739.39</ele>
        <time>2013-01-28T14:57:23Z</time>
      </trkpt>
      <trkpt lat="46.14444" lon="6.17694">
        <ele>742.28</ele>
        <time>2013-01-28T14:57:37Z</time>
      </trkpt>
      <trkpt lat="46.14441" lon="6.17692">
        <ele>745.16</ele>
        <time>2013-01-28T14:57:49Z</time>
      </trkpt>
      <trkpt lat="46.14431" lon="6.1769">
        <ele>747.56</ele>
        <time>2013-01-28T14:57:59Z</time>
      </trkpt>
      <trkpt lat="46.14432" lon="6.17697">
        <ele>748.04</ele>
        <time>2013-01-28T14:58:04Z</time>
      </trkpt>
      <trkpt lat="46.14432" lon="6.177">
        <ele>749.97</ele>
        <time>2013-01-28T14:58:06Z</time>
      </trkpt>
      <trkpt lat="46.1444" lon="6.17712">
        <ele>752.37</ele>
        <time>2013-01-28T14:58:19Z</time>
      </trkpt>
      <trkpt lat="46.14449" lon="6.17719">
        <ele>756.21</ele>
        <time>2013-01-28T14:58:31Z</time>
      </trkpt>
      <trkpt lat="46.14451" lon="6.17721">
        <ele>756.21</ele>
        <time>2013-01-28T14:58:37Z</time>
      </trkpt>
      <trkpt lat="46.14451" lon="6.17724">
        <ele>758.14</ele>
        <time>2013-01-28T14:58:43Z</time>
      </trkpt>
      <trkpt lat="46.14452" lon="6.17732">
        <ele>761.5</ele>
        <time>2013-01-28T14:58:56Z</time>
      </trkpt>
      <trkpt lat="46.14455" lon="6.17734">
        <ele>765.35</ele>
        <time>2013-01-28T14:59:08Z</time>
      </trkpt>
      <trkpt lat="46.14455" lon="6.17734">
        <ele>764.87</ele>
        <time>2013-01-28T14:59:09Z</time>
      </trkpt>
      <trkpt lat="46.14456" lon="6.17749">
        <ele>768.23</ele>
        <time>2013-01-28T14:59:28Z</time>
      </trkpt>
      <trkpt lat="46.14457" lon="6.1775">
        <ele>767.75</ele>
        <time>2013-01-28T14:59:29Z</time>
      </trkpt>
      <trkpt lat="46.1446" lon="6.17755">
        <ele>771.11</ele>
        <time>2013-01-28T14:59:41Z</time>
      </trkpt>
      <trkpt lat="46.14465" lon="6.17758">
        <ele>772.56</ele>
        <time>2013-01-28T15:00:03Z</time>
      </trkpt>
      <trkpt lat="46.14468" lon="6.1776">
        <ele>768.71</ele>
        <time>2013-01-28T15:00:06Z</time>
      </trkpt>
      <trkpt lat="46.14468" lon="6.1776">
        <ele>776.4</ele>
        <time>2013-01-28T15:00:07Z</time>
      </trkpt>
      <trkpt lat="46.14468" lon="6.1776">
        <ele>775.92</ele>
        <time>2013-01-28T15:00:08Z</time>
      </trkpt>
      <trkpt lat="46.14468" lon="6.17761">
        <ele>772.08</ele>
        <time>2013-01-28T15:00:10Z</time>
      </trkpt>
      <trkpt lat="46.14469" lon="6.17763">
        <ele>776.4</ele>
        <time>2013-01-28T15:00:11Z</time>
      </trkpt>
      <trkpt lat="46.14469" lon="6.17766">
        <ele>772.56</ele>
        <time>2013-01-28T15:00:14Z</time>
      </trkpt>
      <trkpt lat="46.1447" lon="6.17768">
        <ele>780.73</ele>
        <time>2013-01-28T15:00:15Z</time>
      </trkpt>
      <trkpt lat="46.14471" lon="6.17769">
        <ele>777.36</ele>
        <time>2013-01-28T15:00:16Z</time>
      </trkpt>
      <trkpt lat="46.14474" lon="6.17772">
        <ele>777.84</ele>
        <time>2013-01-28T15:00:19Z</time>
      </trkpt>
      <trkpt lat="46.14482" lon="6.17774">
        <ele>778.81</ele>
        <time>2013-01-28T15:00:24Z</time>
      </trkpt>
      <trkpt lat="46.14486" lon="6.17783">
        <ele>782.17</ele>
        <time>2013-01-28T15:00:32Z</time>
      </trkpt>
      <trkpt lat="46.14486" lon="6.17792">
        <ele>785.53</ele>
        <time>2013-01-28T15:00:44Z</time>
      </trkpt>
      <trkpt lat="46.14489" lon="6.17796">
        <ele>786.98</ele>
        <time>2013-01-28T15:00:48Z</time>
      </trkpt>
      <trkpt lat="46.14491" lon="6.17802">
        <ele>787.94</ele>
        <time>2013-01-28T15:00:53Z</time>
      </trkpt>
      <trkpt lat="46.14497" lon="6.17816">
        <ele>790.82</ele>
        <time>2013-01-28T15:01:10Z</time>
      </trkpt>
      <trkpt lat="46.14504" lon="6.17819">
        <ele>794.19</ele>
        <time>2013-01-28T15:01:22Z</time>
      </trkpt>
      <trkpt lat="46.1451" lon="6.17821">
        <ele>796.59</ele>
        <time>2013-01-28T15:01:33Z</time>
      </trkpt>
      <trkpt lat="46.14516" lon="6.17825">
        <ele>799.47</ele>
        <time>2013-01-28T15:01:44Z</time>
      </trkpt>
      <trkpt lat="46.14517" lon="6.17825">
        <ele>800.44</ele>
        <time>2013-01-28T15:02:00Z</time>
      </trkpt>
      <trkpt lat="46.14521" lon="6.17828">
        <ele>802.84</ele>
        <time>2013-01-28T15:02:11Z</time>
      </trkpt>
      <trkpt lat="46.14527" lon="6.17832">
        <ele>806.2</ele>
        <time>2013-01-28T15:02:21Z</time>
      </trkpt>
      <trkpt lat="46.14533" lon="6.17841">
        <ele>808.61</ele>
        <time>2013-01-28T15:02:33Z</time>
      </trkpt>
      <trkpt lat="46.14534" lon="6.17845">
        <ele>809.09</ele>
        <time>2013-01-28T15:02:35Z</time>
      </trkpt>
      <trkpt lat="46.14542" lon="6.17857">
        <ele>812.45</ele>
        <time>2013-01-28T15:02:47Z</time>
      </trkpt>
      <trkpt lat="46.14542" lon="6.17857">
        <ele>814.85</ele>
        <time>2013-01-28T15:03:00Z</time>
      </trkpt>
      <trkpt lat="46.14545" lon="6.17866">
        <ele>817.74</ele>
        <time>2013-01-28T15:03:11Z</time>
      </trkpt>
      <trkpt lat="46.14552" lon="6.17883">
        <ele>819.18</ele>
        <time>2013-01-28T15:03:29Z</time>
      </trkpt>
      <trkpt lat="46.14553" lon="6.17889">
        <ele>820.14</ele>
        <time>2013-01-28T15:03:33Z</time>
      </trkpt>
      <trkpt lat="46.14562" lon="6.17913">
        <ele>822.55</ele>
        <time>2013-01-28T15:03:45Z</time>
      </trkpt>
      <trkpt lat="46.14562" lon="6.1792">
        <ele>825.91</ele>
        <time>2013-01-28T15:03:55Z</time>
      </trkpt>
      <trkpt lat="46.14562" lon="6.1792">
        <ele>825.91</ele>
        <time>2013-01-28T15:03:56Z</time>
      </trkpt>
      <trkpt lat="46.14562" lon="6.17925">
        <ele>827.35</ele>
        <time>2013-01-28T15:04:02Z</time>
      </trkpt>
      <trkpt lat="46.14562" lon="6.17931">
        <ele>827.83</ele>
        <time>2013-01-28T15:04:06Z</time>
      </trkpt>
      <trkpt lat="46.14562" lon="6.17935">
        <ele>828.79</ele>
        <time>2013-01-28T15:04:08Z</time>
      </trkpt>
      <trkpt lat="46.14565" lon="6.17949">
        <ele>831.2</ele>
        <time>2013-01-28T15:04:19Z</time>
      </trkpt>
      <trkpt lat="46.14571" lon="6.17955">
        <ele>833.6</ele>
        <time>2013-01-28T15:04:32Z</time>
      </trkpt>
      <trkpt lat="46.1458" lon="6.17962">
        <ele>836.48</ele>
        <time>2013-01-28T15:04:44Z</time>
      </trkpt>
      <trkpt lat="46.14586" lon="6.17967">
        <ele>839.37</ele>
        <time>2013-01-28T15:04:54Z</time>
      </trkpt>
      <trkpt lat="46.14589" lon="6.17971">
        <ele>841.77</ele>
        <time>2013-01-28T15:05:02Z</time>
      </trkpt>
      <trkpt lat="46.14592" lon="6.17974">
        <ele>843.69</ele>
        <time>2013-01-28T15:05:14Z</time>
      </trkpt>
      <trkpt lat="46.1459" lon="6.17975">
        <ele>844.66</ele>
        <time>2013-01-28T15:05:19Z</time>
      </trkpt>
      <trkpt lat="46.14592" lon="6.17979">
        <ele>846.1</ele>
        <time>2013-01-28T15:05:28Z</time>
      </trkpt>
      <trkpt lat="46.14594" lon="6.1798">
        <ele>847.06</ele>
        <time>2013-01-28T15:05:31Z</time>
      </trkpt>
      <trkpt lat="46.14598" lon="6.17989">
        <ele>849.46</ele>
        <time>2013-01-28T15:05:44Z</time>
      </trkpt>
      <trkpt lat="46.14597" lon="6.17988">
        <ele>850.9</ele>
        <time>2013-01-28T15:05:55Z</time>
      </trkpt>
      <trkpt lat="46.1459" lon="6.17992">
        <ele>853.79</ele>
        <time>2013-01-28T15:06:06Z</time>
      </trkpt>
      <trkpt lat="46.1459" lon="6.17993">
        <ele>854.75</ele>
        <time>2013-01-28T15:06:10Z</time>
      </trkpt>
      <trkpt lat="46.1459" lon="6.17993">
        <ele>856.19</ele>
        <time>2013-01-28T15:06:12Z</time>
      </trkpt>
      <trkpt lat="46.14592" lon="6.17996">
        <ele>857.15</ele>
        <time>2013-01-28T15:06:20Z</time>
      </trkpt>
      <trkpt lat="46.14597" lon="6.17999">
        <ele>857.63</ele>
        <time>2013-01-28T15:06:25Z</time>
      </trkpt>
      <trkpt lat="46.14603" lon="6.18007">
        <ele>860.52</ele>
        <time>2013-01-28T15:06:39Z</time>
      </trkpt>
      <trkpt lat="46.14603" lon="6.18008">
        <ele>860.52</ele>
        <time>2013-01-28T15:06:45Z</time>
      </trkpt>
      <trkpt lat="46.14605" lon="6.18022">
        <ele>863.88</ele>
        <time>2013-01-28T15:06:57Z</time>
      </trkpt>
      <trkpt lat="46.14606" lon="6.18027">
        <ele>865.8</ele>
        <time>2013-01-28T15:07:04Z</time>
      </trkpt>
      <trkpt lat="46.14604" lon="6.18026">
        <ele>868.21</ele>
        <time>2013-01-28T15:07:14Z</time>
      </trkpt>
      <trkpt lat="46.14598" lon="6.18025">
        <ele>870.61</ele>
        <time>2013-01-28T15:07:24Z</time>
      </trkpt>
      <trkpt lat="46.14598" lon="6.18027">
        <ele>871.57</ele>
        <time>2013-01-28T15:07:27Z</time>
      </trkpt>
      <trkpt lat="46.14601" lon="6.18036">
        <ele>873.01</ele>
        <time>2013-01-28T15:07:33Z</time>
      </trkpt>
      <trkpt lat="46.14601" lon="6.18041">
        <ele>875.9</ele>
        <time>2013-01-28T15:07:43Z</time>
      </trkpt>
      <trkpt lat="46.14608" lon="6.1805">
        <ele>878.78</ele>
        <time>2013-01-28T15:07:55Z</time>
      </trkpt>
      <trkpt lat="46.14613" lon="6.18059">
        <ele>881.67</ele>
        <time>2013-01-28T15:08:04Z</time>
      </trkpt>
      <trkpt lat="46.14616" lon="6.18065">
        <ele>884.07</ele>
        <time>2013-01-28T15:08:17Z</time>
      </trkpt>
      <trkpt lat="46.14616" lon="6.18066">
        <ele>884.55</ele>
        <time>2013-01-28T15:08:19Z</time>
      </trkpt>
      <trkpt lat="46.14614" lon="6.18069">
        <ele>885.51</ele>
        <time>2013-01-28T15:08:30Z</time>
      </trkpt>
      <trkpt lat="46.1461" lon="6.18068">
        <ele>887.91</ele>
        <time>2013-01-28T15:08:42Z</time>
      </trkpt>
      <trkpt lat="46.14607" lon="6.18069">
        <ele>887.91</ele>
        <time>2013-01-28T15:08:48Z</time>
      </trkpt>
      <trkpt lat="46.14611" lon="6.18077">
        <ele>890.8</ele>
        <time>2013-01-28T15:08:59Z</time>
      </trkpt>
      <trkpt lat="46.14611" lon="6.18077">
        <ele>890.8</ele>
        <time>2013-01-28T15:09:00Z</time>
      </trkpt>
      <trkpt lat="46.14615" lon="6.18087">
        <ele>893.68</ele>
        <time>2013-01-28T15:09:10Z</time>
      </trkpt>
      <trkpt lat="46.14622" lon="6.18096">
        <ele>896.09</ele>
        <time>2013-01-28T15:09:19Z</time>
      </trkpt>
      <trkpt lat="46.14624" lon="6.18098">
        <ele>898.01</ele>
        <time>2013-01-28T15:09:25Z</time>
      </trkpt>
      <trkpt lat="46.1462" lon="6.18097">
        <ele>898.97</ele>
        <time>2013-01-28T15:09:28Z</time>
      </trkpt>
      <trkpt lat="46.14611" lon="6.18097">
        <ele>901.37</ele>
        <time>2013-01-28T15:09:39Z</time>
      </trkpt>
      <trkpt lat="46.146" lon="6.181">
        <ele>904.26</ele>
        <time>2013-01-28T15:09:48Z</time>
      </trkpt>
      <trkpt lat="46.14599" lon="6.181">
        <ele>904.74</ele>
        <time>2013-01-28T15:09:50Z</time>
      </trkpt>
      <trkpt lat="46.14596" lon="6.181">
        <ele>907.14</ele>
        <time>2013-01-28T15:09:57Z</time>
      </trkpt>
      <trkpt lat="46.14588" lon="6.18097">
        <ele>910.51</ele>
        <time>2013-01-28T15:10:07Z</time>
      </trkpt>
      <trkpt lat="46.14578" lon="6.18093">
        <ele>913.87</ele>
        <time>2013-01-28T15:10:18Z</time>
      </trkpt>
      <trkpt lat="46.14571" lon="6.18096">
        <ele>915.79</ele>
        <time>2013-01-28T15:10:25Z</time>
      </trkpt>
      <trkpt lat="46.14575" lon="6.18105">
        <ele>919.16</ele>
        <time>2013-01-28T15:10:35Z</time>
      </trkpt>
      <trkpt lat="46.14576" lon="6.18108">
        <ele>920.12</ele>
        <time>2013-01-28T15:10:40Z</time>
      </trkpt>
      <trkpt lat="46.14576" lon="6.18112">
        <ele>922.04</ele>
        <time>2013-01-28T15:10:45Z</time>
      </trkpt>
      <trkpt lat="46.14575" lon="6.18112">
        <ele>922.52</ele>
        <time>2013-01-28T15:10:47Z</time>
      </trkpt>
      <trkpt lat="46.14567" lon="6.1811">
        <ele>926.37</ele>
        <time>2013-01-28T15:10:58Z</time>
      </trkpt>
      <trkpt lat="46.14564" lon="6.1811">
        <ele>927.33</ele>
        <time>2013-01-28T15:11:01Z</time>
      </trkpt>
      <trkpt lat="46.14558" lon="6.18108">
        <ele>928.29</ele>
        <time>2013-01-28T15:11:05Z</time>
      </trkpt>
      <trkpt lat="46.14553" lon="6.18106">
        <ele>929.73</ele>
        <time>2013-01-28T15:11:11Z</time>
      </trkpt>
      <trkpt lat="46.14549" lon="6.18108">
        <ele>932.62</ele>
        <time>2013-01-28T15:11:22Z</time>
      </trkpt>
      <trkpt lat="46.14548" lon="6.18108">
        <ele>933.58</ele>
        <time>2013-01-28T15:11:24Z</time>
      </trkpt>
      <trkpt lat="46.14541" lon="6.18106">
        <ele>935.5</ele>
        <time>2013-01-28T15:11:32Z</time>
      </trkpt>
      <trkpt lat="46.14537" lon="6.18104">
        <ele>937.42</ele>
        <time>2013-01-28T15:11:37Z</time>
      </trkpt>
      <trkpt lat="46.14528" lon="6.18102">
        <ele>939.83</ele>
        <time>2013-01-28T15:11:45Z</time>
      </trkpt>
      <trkpt lat="46.14524" lon="6.18109">
        <ele>941.75</ele>
        <time>2013-01-28T15:11:52Z</time>
      </trkpt>
      <trkpt lat="46.14517" lon="6.18108">
        <ele>944.15</ele>
        <time>2013-01-28T15:12:00Z</time>
      </trkpt>
      <trkpt lat="46.14504" lon="6.18105">
        <ele>947.52</ele>
        <time>2013-01-28T15:12:12Z</time>
      </trkpt>
      <trkpt lat="46.1449" lon="6.18096">
        <ele>950.4</ele>
        <time>2013-01-28T15:12:26Z</time>
      </trkpt>
      <trkpt lat="46.14485" lon="6.18098">
        <ele>951.36</ele>
        <time>2013-01-28T15:12:30Z</time>
      </trkpt>
      <trkpt lat="46.14481" lon="6.18098">
        <ele>952.8</ele>
        <time>2013-01-28T15:12:33Z</time>
      </trkpt>
      <trkpt lat="46.14476" lon="6.18097">
        <ele>953.28</ele>
        <time>2013-01-28T15:12:41Z</time>
      </trkpt>
      <trkpt lat="46.14463" lon="6.18076">
        <ele>955.21</ele>
        <time>2013-01-28T15:12:53Z</time>
      </trkpt>
      <trkpt lat="46.1446" lon="6.18074">
        <ele>956.17</ele>
        <time>2013-01-28T15:12:56Z</time>
      </trkpt>
      <trkpt lat="46.14449" lon="6.1806">
        <ele>960.01</ele>
        <time>2013-01-28T15:13:05Z</time>
      </trkpt>
      <trkpt lat="46.14447" lon="6.18057">
        <ele>960.98</ele>
        <time>2013-01-28T15:13:07Z</time>
      </trkpt>
      <trkpt lat="46.14445" lon="6.18055">
        <ele>961.46</ele>
        <time>2013-01-28T15:13:09Z</time>
      </trkpt>
      <trkpt lat="46.14441" lon="6.18049">
        <ele>962.42</ele>
        <time>2013-01-28T15:13:12Z</time>
      </trkpt>
      <trkpt lat="46.14433" lon="6.18039">
        <ele>964.34</ele>
        <time>2013-01-28T15:13:19Z</time>
      </trkpt>
      <trkpt lat="46.1442" lon="6.18032">
        <ele>967.7</ele>
        <time>2013-01-28T15:13:28Z</time>
      </trkpt>
      <trkpt lat="46.14414" lon="6.18026">
        <ele>970.11</ele>
        <time>2013-01-28T15:13:35Z</time>
      </trkpt>
      <trkpt lat="46.14408" lon="6.18025">
        <ele>972.51</ele>
        <time>2013-01-28T15:13:41Z</time>
      </trkpt>
      <trkpt lat="46.14409" lon="6.18028">
        <ele>973.95</ele>
        <time>2013-01-28T15:13:47Z</time>
      </trkpt>
      <trkpt lat="46.14406" lon="6.18032">
        <ele>977.32</ele>
        <time>2013-01-28T15:13:58Z</time>
      </trkpt>
      <trkpt lat="46.14405" lon="6.1803">
        <ele>978.76</ele>
        <time>2013-01-28T15:14:01Z</time>
      </trkpt>
      <trkpt lat="46.14403" lon="6.18033">
        <ele>980.2</ele>
        <time>2013-01-28T15:14:08Z</time>
      </trkpt>
      <trkpt lat="46.14404" lon="6.18038">
        <ele>981.16</ele>
        <time>2013-01-28T15:14:12Z</time>
      </trkpt>
      <trkpt lat="46.14398" lon="6.18037">
        <ele>983.57</ele>
        <time>2013-01-28T15:14:22Z</time>
      </trkpt>
      <trkpt lat="46.14392" lon="6.18035">
        <ele>988.37</ele>
        <time>2013-01-28T15:14:30Z</time>
      </trkpt>
      <trkpt lat="46.14386" lon="6.18032">
        <ele>987.41</ele>
        <time>2013-01-28T15:14:37Z</time>
      </trkpt>
      <trkpt lat="46.14382" lon="6.18035">
        <ele>989.33</ele>
        <time>2013-01-28T15:14:42Z</time>
      </trkpt>
      <trkpt lat="46.14383" lon="6.18038">
        <ele>990.78</ele>
        <time>2013-01-28T15:14:53Z</time>
      </trkpt>
      <trkpt lat="46.14385" lon="6.18041">
        <ele>990.78</ele>
        <time>2013-01-28T15:14:56Z</time>
      </trkpt>
      <trkpt lat="46.14384" lon="6.18043">
        <ele>993.18</ele>
        <time>2013-01-28T15:15:04Z</time>
      </trkpt>
      <trkpt lat="46.14378" lon="6.18037">
        <ele>995.58</ele>
        <time>2013-01-28T15:15:15Z</time>
      </trkpt>
      <trkpt lat="46.14376" lon="6.18034">
        <ele>997.02</ele>
        <time>2013-01-28T15:15:19Z</time>
      </trkpt>
      <trkpt lat="46.14374" lon="6.18035">
        <ele>999.91</ele>
        <time>2013-01-28T15:15:27Z</time>
      </trkpt>
      <trkpt lat="46.14375" lon="6.18037">
        <ele>1000.39</ele>
        <time>2013-01-28T15:15:29Z</time>
      </trkpt>
      <trkpt lat="46.14382" lon="6.18051">
        <ele>1000.87</ele>
        <time>2013-01-28T15:15:37Z</time>
      </trkpt>
      <trkpt lat="46.14383" lon="6.18056">
        <ele>1001.35</ele>
        <time>2013-01-28T15:15:42Z</time>
      </trkpt>
      <trkpt lat="46.14386" lon="6.18071">
        <ele>1004.23</ele>
        <time>2013-01-28T15:15:52Z</time>
      </trkpt>
      <trkpt lat="46.14389" lon="6.18078">
        <ele>1005.2</ele>
        <time>2013-01-28T15:15:56Z</time>
      </trkpt>
      <trkpt lat="46.14393" lon="6.18084">
        <ele>1008.08</ele>
        <time>2013-01-28T15:16:05Z</time>
      </trkpt>
      <trkpt lat="46.14389" lon="6.18082">
        <ele>1009.52</ele>
        <time>2013-01-28T15:16:14Z</time>
      </trkpt>
      <trkpt lat="46.14391" lon="6.18087">
        <ele>1012.89</ele>
        <time>2013-01-28T15:16:24Z</time>
      </trkpt>
      <trkpt lat="46.14386" lon="6.18086">
        <ele>1015.77</ele>
        <time>2013-01-28T15:16:34Z</time>
      </trkpt>
      <trkpt lat="46.14385" lon="6.18094">
        <ele>1017.69</ele>
        <time>2013-01-28T15:16:41Z</time>
      </trkpt>
      <trkpt lat="46.14393" lon="6.18104">
        <ele>1020.58</ele>
        <time>2013-01-28T15:16:53Z</time>
      </trkpt>
      <trkpt lat="46.14399" lon="6.18107">
        <ele>1021.06</ele>
        <time>2013-01-28T15:17:02Z</time>
      </trkpt>
      <trkpt lat="46.144" lon="6.18107">
        <ele>1021.54</ele>
        <time>2013-01-28T15:17:06Z</time>
      </trkpt>
      <trkpt lat="46.14399" lon="6.18107">
        <ele>1022.5</ele>
        <time>2013-01-28T15:17:10Z</time>
      </trkpt>
      <trkpt lat="46.14397" lon="6.18106">
        <ele>1022.98</ele>
        <time>2013-01-28T15:17:12Z</time>
      </trkpt>
      <trkpt lat="46.14391" lon="6.18106">
        <ele>1023.46</ele>
        <time>2013-01-28T15:17:17Z</time>
      </trkpt>
      <trkpt lat="46.14389" lon="6.18106">
        <ele>1024.9</ele>
        <time>2013-01-28T15:17:20Z</time>
      </trkpt>
      <trkpt lat="46.1439" lon="6.18113">
        <ele>1028.27</ele>
        <time>2013-01-28T15:17:30Z</time>
      </trkpt>
      <trkpt lat="46.14393" lon="6.18116">
        <ele>1029.71</ele>
        <time>2013-01-28T15:17:37Z</time>
      </trkpt>
      <trkpt lat="46.14389" lon="6.18109">
        <ele>1032.59</ele>
        <time>2013-01-28T15:17:47Z</time>
      </trkpt>
      <trkpt lat="46.14376" lon="6.18099">
        <ele>1034.04</ele>
        <time>2013-01-28T15:17:55Z</time>
      </trkpt>
      <trkpt lat="46.14374" lon="6.18092">
        <ele>1035.48</ele>
        <time>2013-01-28T15:18:04Z</time>
      </trkpt>
      <trkpt lat="46.14371" lon="6.18089">
        <ele>1035.96</ele>
        <time>2013-01-28T15:18:06Z</time>
      </trkpt>
      <trkpt lat="46.14369" lon="6.18087">
        <ele>1035.96</ele>
        <time>2013-01-28T15:18:08Z</time>
      </trkpt>
      <trkpt lat="46.14363" lon="6.18081">
        <ele>1036.92</ele>
        <time>2013-01-28T15:18:12Z</time>
      </trkpt>
      <trkpt lat="46.14357" lon="6.18077">
        <ele>1039.8</ele>
        <time>2013-01-28T15:18:23Z</time>
      </trkpt>
      <trkpt lat="46.14347" lon="6.18067">
        <ele>1043.17</ele>
        <time>2013-01-28T15:18:35Z</time>
      </trkpt>
      <trkpt lat="46.14345" lon="6.18064">
        <ele>1044.13</ele>
        <time>2013-01-28T15:18:39Z</time>
      </trkpt>
      <trkpt lat="46.14335" lon="6.18055">
        <ele>1047.01</ele>
        <time>2013-01-28T15:18:50Z</time>
      </trkpt>
      <trkpt lat="46.14333" lon="6.18054">
        <ele>1047.49</ele>
        <time>2013-01-28T15:18:52Z</time>
      </trkpt>
      <trkpt lat="46.14328" lon="6.18049">
        <ele>1049.42</ele>
        <time>2013-01-28T15:19:07Z</time>
      </trkpt>
      <trkpt lat="46.14322" lon="6.18043">
        <ele>1051.34</ele>
        <time>2013-01-28T15:19:13Z</time>
      </trkpt>
      <trkpt lat="46.14312" lon="6.1804">
        <ele>1054.22</ele>
        <time>2013-01-28T15:19:23Z</time>
      </trkpt>
      <trkpt lat="46.14305" lon="6.18043">
        <ele>1055.18</ele>
        <time>2013-01-28T15:19:34Z</time>
      </trkpt>
      <trkpt lat="46.14307" lon="6.18049">
        <ele>1056.63</ele>
        <time>2013-01-28T15:19:44Z</time>
      </trkpt>
      <trkpt lat="46.1431" lon="6.18057">
        <ele>1059.03</ele>
        <time>2013-01-28T15:19:51Z</time>
      </trkpt>
      <trkpt lat="46.14309" lon="6.18065">
        <ele>1061.43</ele>
        <time>2013-01-28T15:19:58Z</time>
      </trkpt>
      <trkpt lat="46.14313" lon="6.18077">
        <ele>1063.36</ele>
        <time>2013-01-28T15:20:08Z</time>
      </trkpt>
      <trkpt lat="46.14308" lon="6.18089">
        <ele>1065.28</ele>
        <time>2013-01-28T15:20:19Z</time>
      </trkpt>
      <trkpt lat="46.14308" lon="6.18089">
        <ele>1065.28</ele>
        <time>2013-01-28T15:20:20Z</time>
      </trkpt>
      <trkpt lat="46.14302" lon="6.18102">
        <ele>1067.2</ele>
        <time>2013-01-28T15:20:31Z</time>
      </trkpt>
      <trkpt lat="46.14295" lon="6.18107">
        <ele>1071.05</ele>
        <time>2013-01-28T15:20:43Z</time>
      </trkpt>
      <trkpt lat="46.14293" lon="6.18107">
        <ele>1072.01</ele>
        <time>2013-01-28T15:20:47Z</time>
      </trkpt>
      <trkpt lat="46.1429" lon="6.18111">
        <ele>1075.37</ele>
        <time>2013-01-28T15:20:58Z</time>
      </trkpt>
      <trkpt lat="46.14291" lon="6.18112">
        <ele>1079.22</ele>
        <time>2013-01-28T15:21:04Z</time>
      </trkpt>
      <trkpt lat="46.14291" lon="6.18113">
        <ele>1077.78</ele>
        <time>2013-01-28T15:21:05Z</time>
      </trkpt>
      <trkpt lat="46.14291" lon="6.18113">
        <ele>1077.29</ele>
        <time>2013-01-28T15:21:07Z</time>
      </trkpt>
      <trkpt lat="46.14291" lon="6.18113">
        <ele>1077.29</ele>
        <time>2013-01-28T15:21:10Z</time>
      </trkpt>
      <trkpt lat="46.14294" lon="6.18119">
        <ele>1077.29</ele>
        <time>2013-01-28T15:21:15Z</time>
      </trkpt>
      <trkpt lat="46.14298" lon="6.18122">
        <ele>1078.74</ele>
        <time>2013-01-28T15:21:23Z</time>
      </trkpt>
      <trkpt lat="46.14301" lon="6.18125">
        <ele>1080.66</ele>
        <time>2013-01-28T15:21:27Z</time>
      </trkpt>
      <trkpt lat="46.14312" lon="6.18126">
        <ele>1080.18</ele>
        <time>2013-01-28T15:21:40Z</time>
      </trkpt>
      <trkpt lat="46.14321" lon="6.1813">
        <ele>1081.14</ele>
        <time>2013-01-28T15:21:54Z</time>
      </trkpt>
      <trkpt lat="46.14325" lon="6.18138">
        <ele>1084.5</ele>
        <time>2013-01-28T15:22:04Z</time>
      </trkpt>
      <trkpt lat="46.14326" lon="6.1815">
        <ele>1087.87</ele>
        <time>2013-01-28T15:22:17Z</time>
      </trkpt>
      <trkpt lat="46.14326" lon="6.18156">
        <ele>1091.23</ele>
        <time>2013-01-28T15:22:27Z</time>
      </trkpt>
      <trkpt lat="46.14327" lon="6.18157">
        <ele>1091.71</ele>
        <time>2013-01-28T15:22:31Z</time>
      </trkpt>
      <trkpt lat="46.14326" lon="6.18158">
        <ele>1094.6</ele>
        <time>2013-01-28T15:22:46Z</time>
      </trkpt>
      <trkpt lat="46.14327" lon="6.18161">
        <ele>1097.96</ele>
        <time>2013-01-28T15:23:06Z</time>
      </trkpt>
      <trkpt lat="46.14328" lon="6.18171">
        <ele>1101.33</ele>
        <time>2013-01-28T15:23:17Z</time>
      </trkpt>
      <trkpt lat="46.14329" lon="6.18182">
        <ele>1104.21</ele>
        <time>2013-01-28T15:23:29Z</time>
      </trkpt>
      <trkpt lat="46.14324" lon="6.18184">
        <ele>1107.58</ele>
        <time>2013-01-28T15:23:43Z</time>
      </trkpt>
      <trkpt lat="46.14322" lon="6.18189">
        <ele>1110.46</ele>
        <time>2013-01-28T15:23:59Z</time>
      </trkpt>
      <trkpt lat="46.14328" lon="6.18202">
        <ele>1113.82</ele>
        <time>2013-01-28T15:24:11Z</time>
      </trkpt>
      <trkpt lat="46.14312" lon="6.18199">
        <ele>1116.71</ele>
        <time>2013-01-28T15:24:23Z</time>
      </trkpt>
      <trkpt lat="46.14307" lon="6.18195">
        <ele>1120.07</ele>
        <time>2013-01-28T15:24:36Z</time>
      </trkpt>
      <trkpt lat="46.14293" lon="6.18192">
        <ele>1123.92</ele>
        <time>2013-01-28T15:24:50Z</time>
      </trkpt>
      <trkpt lat="46.14288" lon="6.18191">
        <ele>1125.84</ele>
        <time>2013-01-28T15:24:59Z</time>
      </trkpt>
      <trkpt lat="46.14279" lon="6.18194">
        <ele>1129.69</ele>
        <time>2013-01-28T15:25:14Z</time>
      </trkpt>
      <trkpt lat="46.14277" lon="6.18213">
        <ele>1133.05</ele>
        <time>2013-01-28T15:25:25Z</time>
      </trkpt>
      <trkpt lat="46.14275" lon="6.18226">
        <ele>1135.94</ele>
        <time>2013-01-28T15:25:37Z</time>
      </trkpt>
      <trkpt lat="46.14273" lon="6.18232">
        <ele>1139.3</ele>
        <time>2013-01-28T15:25:47Z</time>
      </trkpt>
      <trkpt lat="46.14269" lon="6.18245">
        <ele>1142.18</ele>
        <time>2013-01-28T15:25:59Z</time>
      </trkpt>
      <trkpt lat="46.14268" lon="6.18254">
        <ele>1145.55</ele>
        <time>2013-01-28T15:26:09Z</time>
      </trkpt>
      <trkpt lat="46.14266" lon="6.18256">
        <ele>1148.43</ele>
        <time>2013-01-28T15:26:22Z</time>
      </trkpt>
      <trkpt lat="46.14255" lon="6.18274">
        <ele>1151.8</ele>
        <time>2013-01-28T15:26:33Z</time>
      </trkpt>
      <trkpt lat="46.14238" lon="6.18285">
        <ele>1154.2</ele>
        <time>2013-01-28T15:26:49Z</time>
      </trkpt>
      <trkpt lat="46.14225" lon="6.18294">
        <ele>1157.08</ele>
        <time>2013-01-28T15:27:02Z</time>
      </trkpt>
      <trkpt lat="46.14214" lon="6.18298">
        <ele>1159.97</ele>
        <time>2013-01-28T15:27:14Z</time>
      </trkpt>
      <trkpt lat="46.14208" lon="6.18303">
        <ele>1163.33</ele>
        <time>2013-01-28T15:27:26Z</time>
      </trkpt>
      <trkpt lat="46.14197" lon="6.18313">
        <ele>1166.22</ele>
        <time>2013-01-28T15:27:40Z</time>
      </trkpt>
      <trkpt lat="46.14192" lon="6.18322">
        <ele>1169.58</ele>
        <time>2013-01-28T15:27:52Z</time>
      </trkpt>
      <trkpt lat="46.14186" lon="6.18329">
        <ele>1172.47</ele>
        <time>2013-01-28T15:28:06Z</time>
      </trkpt>
      <trkpt lat="46.14172" lon="6.18332">
        <ele>1175.83</ele>
        <time>2013-01-28T15:28:18Z</time>
      </trkpt>
      <trkpt lat="46.14162" lon="6.18335">
        <ele>1178.23</ele>
        <time>2013-01-28T15:28:35Z</time>
      </trkpt>
      <trkpt lat="46.14153" lon="6.18339">
        <ele>1181.12</ele>
        <time>2013-01-28T15:28:49Z</time>
      </trkpt>
      <trkpt lat="46.14144" lon="6.18347">
        <ele>1184</ele>
        <time>2013-01-28T15:29:05Z</time>
      </trkpt>
      <trkpt lat="46.14132" lon="6.18348">
        <ele>1186.4</ele>
        <time>2013-01-28T15:29:20Z</time>
      </trkpt>
      <trkpt lat="46.14126" lon="6.1835">
        <ele>1187.37</ele>
        <time>2013-01-28T15:29:24Z</time>
      </trkpt>
      <trkpt lat="46.14108" lon="6.18345">
        <ele>1189.29</ele>
        <time>2013-01-28T15:29:39Z</time>
      </trkpt>
      <trkpt lat="46.14105" lon="6.18345">
        <ele>1188.81</ele>
        <time>2013-01-28T15:29:53Z</time>
      </trkpt>
      <trkpt lat="46.1409" lon="6.18326">
        <ele>1190.25</ele>
        <time>2013-01-28T15:30:07Z</time>
      </trkpt>
      <trkpt lat="46.14077" lon="6.1831">
        <ele>1193.13</ele>
        <time>2013-01-28T15:30:22Z</time>
      </trkpt>
      <trkpt lat="46.1408" lon="6.18317">
        <ele>1193.13</ele>
        <time>2013-01-28T15:30:42Z</time>
      </trkpt>
      <trkpt lat="46.14089" lon="6.18331">
        <ele>1195.54</ele>
        <time>2013-01-28T15:30:58Z</time>
      </trkpt>
      <trkpt lat="46.14091" lon="6.18335">
        <ele>1198.42</ele>
        <time>2013-01-28T15:31:06Z</time>
      </trkpt>
      <trkpt lat="46.14101" lon="6.1836">
        <ele>1201.79</ele>
        <time>2013-01-28T15:31:20Z</time>
      </trkpt>
      <trkpt lat="46.14103" lon="6.18364">
        <ele>1204.67</ele>
        <time>2013-01-28T15:31:29Z</time>
      </trkpt>
      <trkpt lat="46.14125" lon="6.18381">
        <ele>1207.55</ele>
        <time>2013-01-28T15:31:40Z</time>
      </trkpt>
      <trkpt lat="46.14133" lon="6.18387">
        <ele>1210.92</ele>
        <time>2013-01-28T15:31:51Z</time>
      </trkpt>
      <trkpt lat="46.14124" lon="6.18397">
        <ele>1213.8</ele>
        <time>2013-01-28T15:32:07Z</time>
      </trkpt>
      <trkpt lat="46.14118" lon="6.184">
        <ele>1216.69</ele>
        <time>2013-01-28T15:32:18Z</time>
      </trkpt>
      <trkpt lat="46.14116" lon="6.18405">
        <ele>1219.09</ele>
        <time>2013-01-28T15:32:26Z</time>
      </trkpt>
      <trkpt lat="46.14108" lon="6.18409">
        <ele>1222.45</ele>
        <time>2013-01-28T15:32:39Z</time>
      </trkpt>
      <trkpt lat="46.14102" lon="6.18412">
        <ele>1225.82</ele>
        <time>2013-01-28T15:32:50Z</time>
      </trkpt>
      <trkpt lat="46.14101" lon="6.18424">
        <ele>1228.7</ele>
        <time>2013-01-28T15:33:02Z</time>
      </trkpt>
      <trkpt lat="46.14099" lon="6.18429">
        <ele>1230.62</ele>
        <time>2013-01-28T15:33:08Z</time>
      </trkpt>
      <trkpt lat="46.14095" lon="6.18437">
        <ele>1233.99</ele>
        <time>2013-01-28T15:33:19Z</time>
      </trkpt>
      <trkpt lat="46.14088" lon="6.18449">
        <ele>1234.95</ele>
        <time>2013-01-28T15:33:32Z</time>
      </trkpt>
      <trkpt lat="46.14083" lon="6.18447">
        <ele>1234.95</ele>
        <time>2013-01-28T15:33:35Z</time>
      </trkpt>
      <trkpt lat="46.14073" lon="6.18434">
        <ele>1235.91</ele>
        <time>2013-01-28T15:33:42Z</time>
      </trkpt>
      <trkpt lat="46.14064" lon="6.18422">
        <ele>1237.35</ele>
        <time>2013-01-28T15:33:49Z</time>
      </trkpt>
      <trkpt lat="46.14054" lon="6.18407">
        <ele>1240.72</ele>
        <time>2013-01-28T15:33:58Z</time>
      </trkpt>
      <trkpt lat="46.14046" lon="6.18393">
        <ele>1242.16</ele>
        <time>2013-01-28T15:34:05Z</time>
      </trkpt>
      <trkpt lat="46.14044" lon="6.18387">
        <ele>1242.64</ele>
        <time>2013-01-28T15:34:08Z</time>
      </trkpt>
      <trkpt lat="46.14041" lon="6.18381">
        <ele>1243.12</ele>
        <time>2013-01-28T15:34:12Z</time>
      </trkpt>
      <trkpt lat="46.14031" lon="6.18363">
        <ele>1245.04</ele>
        <time>2013-01-28T15:34:21Z</time>
      </trkpt>
      <trkpt lat="46.14026" lon="6.18353">
        <ele>1246.49</ele>
        <time>2013-01-28T15:34:26Z</time>
      </trkpt>
      <trkpt lat="46.14022" lon="6.18345">
        <ele>1247.45</ele>
        <time>2013-01-28T15:34:32Z</time>
      </trkpt>
      <trkpt lat="46.14016" lon="6.18328">
        <ele>1249.85</ele>
        <time>2013-01-28T15:34:45Z</time>
      </trkpt>
      <trkpt lat="46.14009" lon="6.18313">
        <ele>1250.33</ele>
        <time>2013-01-28T15:34:57Z</time>
      </trkpt>
      <trkpt lat="46.14003" lon="6.18296">
        <ele>1251.77</ele>
        <time>2013-01-28T15:35:09Z</time>
      </trkpt>
      <trkpt lat="46.13992" lon="6.18272">
        <ele>1253.7</ele>
        <time>2013-01-28T15:35:23Z</time>
      </trkpt>
      <trkpt lat="46.1399" lon="6.18264">
        <ele>1254.66</ele>
        <time>2013-01-28T15:35:28Z</time>
      </trkpt>
      <trkpt lat="46.13984" lon="6.18241">
        <ele>1256.1</ele>
        <time>2013-01-28T15:35:42Z</time>
      </trkpt>
      <trkpt lat="46.13981" lon="6.18233">
        <ele>1257.54</ele>
        <time>2013-01-28T15:35:46Z</time>
      </trkpt>
      <trkpt lat="46.13979" lon="6.18223">
        <ele>1258.5</ele>
        <time>2013-01-28T15:35:52Z</time>
      </trkpt>
      <trkpt lat="46.13973" lon="6.18203">
        <ele>1260.43</ele>
        <time>2013-01-28T15:36:03Z</time>
      </trkpt>
      <trkpt lat="46.13969" lon="6.18186">
        <ele>1262.35</ele>
        <time>2013-01-28T15:36:14Z</time>
      </trkpt>
      <trkpt lat="46.13965" lon="6.18177">
        <ele>1263.79</ele>
        <time>2013-01-28T15:36:25Z</time>
      </trkpt>
      <trkpt lat="46.13965" lon="6.18177">
        <ele>1263.31</ele>
        <time>2013-01-28T15:36:49Z</time>
      </trkpt>
      <trkpt lat="46.13964" lon="6.18171">
        <ele>1264.27</ele>
        <time>2013-01-28T15:36:53Z</time>
      </trkpt>
      <trkpt lat="46.13958" lon="6.18146">
        <ele>1264.27</ele>
        <time>2013-01-28T15:37:03Z</time>
      </trkpt>
      <trkpt lat="46.13953" lon="6.18131">
        <ele>1265.71</ele>
        <time>2013-01-28T15:37:09Z</time>
      </trkpt>
      <trkpt lat="46.13949" lon="6.18118">
        <ele>1266.67</ele>
        <time>2013-01-28T15:37:15Z</time>
      </trkpt>
      <trkpt lat="46.13948" lon="6.18101">
        <ele>1268.12</ele>
        <time>2013-01-28T15:37:21Z</time>
      </trkpt>
      <trkpt lat="46.13947" lon="6.18081">
        <ele>1270.04</ele>
        <time>2013-01-28T15:37:29Z</time>
      </trkpt>
      <trkpt lat="46.13947" lon="6.18076">
        <ele>1270.04</ele>
        <time>2013-01-28T15:37:31Z</time>
      </trkpt>
      <trkpt lat="46.13945" lon="6.18052">
        <ele>1270.52</ele>
        <time>2013-01-28T15:37:41Z</time>
      </trkpt>
      <trkpt lat="46.13939" lon="6.18029">
        <ele>1271</ele>
        <time>2013-01-28T15:37:52Z</time>
      </trkpt>
      <trkpt lat="46.13935" lon="6.18022">
        <ele>1271</ele>
        <time>2013-01-28T15:38:06Z</time>
      </trkpt>
      <trkpt lat="46.13927" lon="6.18017">
        <ele>1271.96</ele>
        <time>2013-01-28T15:38:15Z</time>
      </trkpt>
      <trkpt lat="46.1392" lon="6.18019">
        <ele>1270.52</ele>
        <time>2013-01-28T15:38:20Z</time>
      </trkpt>
      <trkpt lat="46.13917" lon="6.18018">
        <ele>1270.04</ele>
        <time>2013-01-28T15:38:21Z</time>
      </trkpt>
      <trkpt lat="46.1388" lon="6.18009">
        <ele>1268.6</ele>
        <time>2013-01-28T15:38:33Z</time>
      </trkpt>
      <trkpt lat="46.13842" lon="6.17999">
        <ele>1267.16</ele>
        <time>2013-01-28T15:38:46Z</time>
      </trkpt>
      <trkpt lat="46.13815" lon="6.1799">
        <ele>1268.12</ele>
        <time>2013-01-28T15:38:57Z</time>
      </trkpt>
      <trkpt lat="46.13785" lon="6.1798">
        <ele>1268.6</ele>
        <time>2013-01-28T15:39:08Z</time>
      </trkpt>
      <trkpt lat="46.13752" lon="6.17977">
        <ele>1269.56</ele>
        <time>2013-01-28T15:39:19Z</time>
      </trkpt>
      <trkpt lat="46.13723" lon="6.17984">
        <ele>1271.48</ele>
        <time>2013-01-28T15:39:31Z</time>
      </trkpt>
      <trkpt lat="46.13696" lon="6.18015">
        <ele>1272.92</ele>
        <time>2013-01-28T15:39:45Z</time>
      </trkpt>
      <trkpt lat="46.13679" lon="6.18049">
        <ele>1273.88</ele>
        <time>2013-01-28T15:39:56Z</time>
      </trkpt>
      <trkpt lat="46.13657" lon="6.18089">
        <ele>1274.85</ele>
        <time>2013-01-28T15:40:08Z</time>
      </trkpt>
      <trkpt lat="46.13634" lon="6.18125">
        <ele>1275.81</ele>
        <time>2013-01-28T15:40:20Z</time>
      </trkpt>
      <trkpt lat="46.13611" lon="6.18152">
        <ele>1276.77</ele>
        <time>2013-01-28T15:40:33Z</time>
      </trkpt>
      <trkpt lat="46.13603" lon="6.18163">
        <ele>1277.25</ele>
        <time>2013-01-28T15:40:49Z</time>
      </trkpt>
      <trkpt lat="46.13597" lon="6.18167">
        <ele>1277.25</ele>
        <time>2013-01-28T15:41:13Z</time>
      </trkpt>
      <trkpt lat="46.13569" lon="6.1818">
        <ele>1278.21</ele>
        <time>2013-01-28T15:41:24Z</time>
      </trkpt>
      <trkpt lat="46.13543" lon="6.18184">
        <ele>1279.17</ele>
        <time>2013-01-28T15:41:34Z</time>
      </trkpt>
      <trkpt lat="46.13513" lon="6.18206">
        <ele>1280.13</ele>
        <time>2013-01-28T15:41:46Z</time>
      </trkpt>
      <trkpt lat="46.13489" lon="6.18238">
        <ele>1281.09</ele>
        <time>2013-01-28T15:41:58Z</time>
      </trkpt>
      <trkpt lat="46.13464" lon="6.18247">
        <ele>1281.57</ele>
        <time>2013-01-28T15:42:08Z</time>
      </trkpt>
      <trkpt lat="46.13455" lon="6.18246">
        <ele>1282.06</ele>
        <time>2013-01-28T15:42:13Z</time>
      </trkpt>
      <trkpt lat="46.13437" lon="6.18238">
        <ele>1281.09</ele>
        <time>2013-01-28T15:42:30Z</time>
      </trkpt>
      <trkpt lat="46.13437" lon="6.18238">
        <ele>1281.57</ele>
        <time>2013-01-28T15:42:58Z</time>
      </trkpt>
      <trkpt lat="46.13438" lon="6.18238">
        <ele>1280.61</ele>
        <time>2013-01-28T15:43:13Z</time>
      </trkpt>
      <trkpt lat="46.13438" lon="6.18238">
        <ele>1283.98</ele>
        <time>2013-01-28T15:43:14Z</time>
      </trkpt>
      <trkpt lat="46.13438" lon="6.18238">
        <ele>1280.61</ele>
        <time>2013-01-28T15:43:15Z</time>
      </trkpt>
      <trkpt lat="46.13438" lon="6.18238">
        <ele>1285.9</ele>
        <time>2013-01-28T15:43:19Z</time>
      </trkpt>
      <trkpt lat="46.13438" lon="6.18238">
        <ele>1278.69</ele>
        <time>2013-01-28T15:43:20Z</time>
      </trkpt>
      <trkpt lat="46.13438" lon="6.18238">
        <ele>1283.98</ele>
        <time>2013-01-28T15:43:21Z</time>
      </trkpt>
      <trkpt lat="46.13438" lon="6.18238">
        <ele>1279.65</ele>
        <time>2013-01-28T15:43:22Z</time>
      </trkpt>
      <trkpt lat="46.13438" lon="6.18238">
        <ele>1284.94</ele>
        <time>2013-01-28T15:43:24Z</time>
      </trkpt>
      <trkpt lat="46.13438" lon="6.18238">
        <ele>1280.13</ele>
        <time>2013-01-28T15:43:25Z</time>
      </trkpt>
      <trkpt lat="46.13438" lon="6.18238">
        <ele>1285.9</ele>
        <time>2013-01-28T15:43:27Z</time>
      </trkpt>
      <trkpt lat="46.13438" lon="6.18238">
        <ele>1277.73</ele>
        <time>2013-01-28T15:43:28Z</time>
      </trkpt>
      <trkpt lat="46.13438" lon="6.18238">
        <ele>1285.42</ele>
        <time>2013-01-28T15:43:29Z</time>
      </trkpt>
      <trkpt lat="46.13438" lon="6.18238">
        <ele>1282.06</ele>
        <time>2013-01-28T15:43:31Z</time>
      </trkpt>
      <trkpt lat="46.13438" lon="6.18238">
        <ele>1278.21</ele>
        <time>2013-01-28T15:43:34Z</time>
      </trkpt>
      <trkpt lat="46.13438" lon="6.18238">
        <ele>1283.98</ele>
        <time>2013-01-28T15:43:35Z</time>
      </trkpt>
      <trkpt lat="46.13439" lon="6.18239">
        <ele>1281.57</ele>
        <time>2013-01-28T15:43:47Z</time>
      </trkpt>
      <trkpt lat="46.13433" lon="6.18234">
        <ele>1281.09</ele>
        <time>2013-01-28T15:43:55Z</time>
      </trkpt>
      <trkpt lat="46.13404" lon="6.18207">
        <ele>1280.13</ele>
        <time>2013-01-28T15:44:06Z</time>
      </trkpt>
      <trkpt lat="46.13383" lon="6.18186">
        <ele>1280.13</ele>
        <time>2013-01-28T15:44:14Z</time>
      </trkpt>
      <trkpt lat="46.13362" lon="6.18161">
        <ele>1280.13</ele>
        <time>2013-01-28T15:44:23Z</time>
      </trkpt>
      <trkpt lat="46.13355" lon="6.18149">
        <ele>1280.61</ele>
        <time>2013-01-28T15:44:27Z</time>
      </trkpt>
      <trkpt lat="46.13353" lon="6.18145">
        <ele>1280.61</ele>
        <time>2013-01-28T15:44:28Z</time>
      </trkpt>
      <trkpt lat="46.13345" lon="6.18115">
        <ele>1280.61</ele>
        <time>2013-01-28T15:44:36Z</time>
      </trkpt>
      <trkpt lat="46.13345" lon="6.1811">
        <ele>1280.13</ele>
        <time>2013-01-28T15:44:37Z</time>
      </trkpt>
      <trkpt lat="46.13345" lon="6.18105">
        <ele>1280.13</ele>
        <time>2013-01-28T15:44:38Z</time>
      </trkpt>
      <trkpt lat="46.13344" lon="6.18096">
        <ele>1279.65</ele>
        <time>2013-01-28T15:44:40Z</time>
      </trkpt>
      <trkpt lat="46.13344" lon="6.18092">
        <ele>1279.65</ele>
        <time>2013-01-28T15:44:41Z</time>
      </trkpt>
      <trkpt lat="46.13344" lon="6.18088">
        <ele>1279.65</ele>
        <time>2013-01-28T15:44:42Z</time>
      </trkpt>
      <trkpt lat="46.13344" lon="6.18083">
        <ele>1279.65</ele>
        <time>2013-01-28T15:44:43Z</time>
      </trkpt>
      <trkpt lat="46.13344" lon="6.18079">
        <ele>1279.17</ele>
        <time>2013-01-28T15:44:44Z</time>
      </trkpt>
      <trkpt lat="46.13344" lon="6.18041">
        <ele>1278.21</ele>
        <time>2013-01-28T15:44:53Z</time>
      </trkpt>
      <trkpt lat="46.13347" lon="6.18">
        <ele>1276.77</ele>
        <time>2013-01-28T15:45:02Z</time>
      </trkpt>
      <trkpt lat="46.13349" lon="6.17963">
        <ele>1275.33</ele>
        <time>2013-01-28T15:45:11Z</time>
      </trkpt>
      <trkpt lat="46.13351" lon="6.17914">
        <ele>1272.92</ele>
        <time>2013-01-28T15:45:22Z</time>
      </trkpt>
      <trkpt lat="46.13354" lon="6.1787">
        <ele>1270.52</ele>
        <time>2013-01-28T15:45:32Z</time>
      </trkpt>
      <trkpt lat="46.13356" lon="6.17825">
        <ele>1268.6</ele>
        <time>2013-01-28T15:45:42Z</time>
      </trkpt>
      <trkpt lat="46.13352" lon="6.17784">
        <ele>1266.67</ele>
        <time>2013-01-28T15:45:51Z</time>
      </trkpt>
      <trkpt lat="46.13344" lon="6.17751">
        <ele>1264.27</ele>
        <time>2013-01-28T15:45:59Z</time>
      </trkpt>
      <trkpt lat="46.13332" lon="6.17711">
        <ele>1262.35</ele>
        <time>2013-01-28T15:46:09Z</time>
      </trkpt>
      <trkpt lat="46.13322" lon="6.17683">
        <ele>1259.94</ele>
        <time>2013-01-28T15:46:16Z</time>
      </trkpt>
      <trkpt lat="46.13313" lon="6.17657">
        <ele>1258.98</ele>
        <time>2013-01-28T15:46:22Z</time>
      </trkpt>
      <trkpt lat="46.133" lon="6.17614">
        <ele>1257.54</ele>
        <time>2013-01-28T15:46:32Z</time>
      </trkpt>
      <trkpt lat="46.13276" lon="6.17595">
        <ele>1255.14</ele>
        <time>2013-01-28T15:46:41Z</time>
      </trkpt>
      <trkpt lat="46.13246" lon="6.17596">
        <ele>1253.22</ele>
        <time>2013-01-28T15:46:51Z</time>
      </trkpt>
      <trkpt lat="46.1322" lon="6.17594">
        <ele>1251.29</ele>
        <time>2013-01-28T15:47:00Z</time>
      </trkpt>
      <trkpt lat="46.1319" lon="6.17586">
        <ele>1249.85</ele>
        <time>2013-01-28T15:47:10Z</time>
      </trkpt>
      <trkpt lat="46.13172" lon="6.17578">
        <ele>1248.41</ele>
        <time>2013-01-28T15:47:17Z</time>
      </trkpt>
      <trkpt lat="46.13153" lon="6.17568">
        <ele>1246.97</ele>
        <time>2013-01-28T15:47:24Z</time>
      </trkpt>
      <trkpt lat="46.13137" lon="6.17562">
        <ele>1246.01</ele>
        <time>2013-01-28T15:47:29Z</time>
      </trkpt>
      <trkpt lat="46.13133" lon="6.17561">
        <ele>1245.53</ele>
        <time>2013-01-28T15:47:30Z</time>
      </trkpt>
      <trkpt lat="46.1313" lon="6.17559">
        <ele>1245.53</ele>
        <time>2013-01-28T15:47:31Z</time>
      </trkpt>
      <trkpt lat="46.13127" lon="6.17557">
        <ele>1245.53</ele>
        <time>2013-01-28T15:47:32Z</time>
      </trkpt>
      <trkpt lat="46.13124" lon="6.17555">
        <ele>1245.04</ele>
        <time>2013-01-28T15:47:33Z</time>
      </trkpt>
      <trkpt lat="46.13121" lon="6.17553">
        <ele>1245.04</ele>
        <time>2013-01-28T15:47:34Z</time>
      </trkpt>
      <trkpt lat="46.13098" lon="6.1754">
        <ele>1243.6</ele>
        <time>2013-01-28T15:47:42Z</time>
      </trkpt>
      <trkpt lat="46.1307" lon="6.17536">
        <ele>1241.2</ele>
        <time>2013-01-28T15:47:52Z</time>
      </trkpt>
      <trkpt lat="46.1304" lon="6.1754">
        <ele>1238.8</ele>
        <time>2013-01-28T15:48:03Z</time>
      </trkpt>
      <trkpt lat="46.13012" lon="6.1754">
        <ele>1236.87</ele>
        <time>2013-01-28T15:48:12Z</time>
      </trkpt>
      <trkpt lat="46.12983" lon="6.17543">
        <ele>1234.95</ele>
        <time>2013-01-28T15:48:22Z</time>
      </trkpt>
      <trkpt lat="46.12959" lon="6.17542">
        <ele>1233.03</ele>
        <time>2013-01-28T15:48:30Z</time>
      </trkpt>
      <trkpt lat="46.12935" lon="6.17544">
        <ele>1231.59</ele>
        <time>2013-01-28T15:48:38Z</time>
      </trkpt>
      <trkpt lat="46.12912" lon="6.17544">
        <ele>1230.14</ele>
        <time>2013-01-28T15:48:46Z</time>
      </trkpt>
      <trkpt lat="46.12909" lon="6.17544">
        <ele>1229.66</ele>
        <time>2013-01-28T15:48:47Z</time>
      </trkpt>
      <trkpt lat="46.12907" lon="6.17544">
        <ele>1229.18</ele>
        <time>2013-01-28T15:48:48Z</time>
      </trkpt>
      <trkpt lat="46.12881" lon="6.17544">
        <ele>1228.22</ele>
        <time>2013-01-28T15:48:57Z</time>
      </trkpt>
      <trkpt lat="46.12856" lon="6.17534">
        <ele>1226.3</ele>
        <time>2013-01-28T15:49:05Z</time>
      </trkpt>
      <trkpt lat="46.1285" lon="6.17531">
        <ele>1225.82</ele>
        <time>2013-01-28T15:49:07Z</time>
      </trkpt>
      <trkpt lat="46.12847" lon="6.17531">
        <ele>1225.82</ele>
        <time>2013-01-28T15:49:08Z</time>
      </trkpt>
      <trkpt lat="46.12831" lon="6.17528">
        <ele>1225.34</ele>
        <time>2013-01-28T15:49:13Z</time>
      </trkpt>
      <trkpt lat="46.12829" lon="6.17528">
        <ele>1225.34</ele>
        <time>2013-01-28T15:49:14Z</time>
      </trkpt>
      <trkpt lat="46.12826" lon="6.17528">
        <ele>1224.86</ele>
        <time>2013-01-28T15:49:15Z</time>
      </trkpt>
      <trkpt lat="46.12823" lon="6.17527">
        <ele>1224.86</ele>
        <time>2013-01-28T15:49:16Z</time>
      </trkpt>
      <trkpt lat="46.1282" lon="6.17526">
        <ele>1224.86</ele>
        <time>2013-01-28T15:49:17Z</time>
      </trkpt>
      <trkpt lat="46.12817" lon="6.17526">
        <ele>1223.9</ele>
        <time>2013-01-28T15:49:18Z</time>
      </trkpt>
      <trkpt lat="46.12814" lon="6.17527">
        <ele>1223.9</ele>
        <time>2013-01-28T15:49:19Z</time>
      </trkpt>
      <trkpt lat="46.12812" lon="6.17527">
        <ele>1223.42</ele>
        <time>2013-01-28T15:49:20Z</time>
      </trkpt>
      <trkpt lat="46.12809" lon="6.17527">
        <ele>1223.42</ele>
        <time>2013-01-28T15:49:21Z</time>
      </trkpt>
      <trkpt lat="46.12806" lon="6.17527">
        <ele>1223.42</ele>
        <time>2013-01-28T15:49:22Z</time>
      </trkpt>
      <trkpt lat="46.12804" lon="6.17526">
        <ele>1222.93</ele>
        <time>2013-01-28T15:49:23Z</time>
      </trkpt>
      <trkpt lat="46.12801" lon="6.17525">
        <ele>1222.93</ele>
        <time>2013-01-28T15:49:24Z</time>
      </trkpt>
      <trkpt lat="46.12773" lon="6.17524">
        <ele>1221.01</ele>
        <time>2013-01-28T15:49:33Z</time>
      </trkpt>
      <trkpt lat="46.12742" lon="6.17521">
        <ele>1219.09</ele>
        <time>2013-01-28T15:49:43Z</time>
      </trkpt>
      <trkpt lat="46.12707" lon="6.17518">
        <ele>1217.17</ele>
        <time>2013-01-28T15:49:54Z</time>
      </trkpt>
      <trkpt lat="46.12705" lon="6.17517">
        <ele>1217.17</ele>
        <time>2013-01-28T15:49:55Z</time>
      </trkpt>
      <trkpt lat="46.12681" lon="6.17505">
        <ele>1215.72</ele>
        <time>2013-01-28T15:50:03Z</time>
      </trkpt>
      <trkpt lat="46.12677" lon="6.17503">
        <ele>1215.24</ele>
        <time>2013-01-28T15:50:04Z</time>
      </trkpt>
      <trkpt lat="46.12652" lon="6.17489">
        <ele>1213.8</ele>
        <time>2013-01-28T15:50:13Z</time>
      </trkpt>
      <trkpt lat="46.1264" lon="6.17464">
        <ele>1211.88</ele>
        <time>2013-01-28T15:50:21Z</time>
      </trkpt>
      <trkpt lat="46.12638" lon="6.17459">
        <ele>1211.88</ele>
        <time>2013-01-28T15:50:22Z</time>
      </trkpt>
      <trkpt lat="46.12636" lon="6.17454">
        <ele>1211.4</ele>
        <time>2013-01-28T15:50:23Z</time>
      </trkpt>
      <trkpt lat="46.12635" lon="6.17451">
        <ele>1211.4</ele>
        <time>2013-01-28T15:50:24Z</time>
      </trkpt>
      <trkpt lat="46.12625" lon="6.17427">
        <ele>1210.44</ele>
        <time>2013-01-28T15:50:30Z</time>
      </trkpt>
      <trkpt lat="46.12609" lon="6.174">
        <ele>1208.51</ele>
        <time>2013-01-28T15:50:38Z</time>
      </trkpt>
      <trkpt lat="46.12595" lon="6.17375">
        <ele>1207.07</ele>
        <time>2013-01-28T15:50:46Z</time>
      </trkpt>
      <trkpt lat="46.12591" lon="6.17369">
        <ele>1206.59</ele>
        <time>2013-01-28T15:50:48Z</time>
      </trkpt>
      <trkpt lat="46.12589" lon="6.17365">
        <ele>1206.59</ele>
        <time>2013-01-28T15:50:49Z</time>
      </trkpt>
      <trkpt lat="46.12588" lon="6.17362">
        <ele>1206.11</ele>
        <time>2013-01-28T15:50:50Z</time>
      </trkpt>
      <trkpt lat="46.12587" lon="6.17358">
        <ele>1206.11</ele>
        <time>2013-01-28T15:50:51Z</time>
      </trkpt>
      <trkpt lat="46.12585" lon="6.17354">
        <ele>1205.63</ele>
        <time>2013-01-28T15:50:52Z</time>
      </trkpt>
      <trkpt lat="46.12579" lon="6.17326">
        <ele>1204.19</ele>
        <time>2013-01-28T15:50:59Z</time>
      </trkpt>
      <trkpt lat="46.12574" lon="6.17294">
        <ele>1202.27</ele>
        <time>2013-01-28T15:51:07Z</time>
      </trkpt>
      <trkpt lat="46.12568" lon="6.1726">
        <ele>1200.82</ele>
        <time>2013-01-28T15:51:15Z</time>
      </trkpt>
      <trkpt lat="46.12564" lon="6.17249">
        <ele>1197.46</ele>
        <time>2013-01-28T15:51:24Z</time>
      </trkpt>
      <trkpt lat="46.12564" lon="6.17249">
        <ele>1201.79</ele>
        <time>2013-01-28T15:51:25Z</time>
      </trkpt>
      <trkpt lat="46.12561" lon="6.17243">
        <ele>1199.86</ele>
        <time>2013-01-28T15:51:38Z</time>
      </trkpt>
      <trkpt lat="46.12558" lon="6.1724">
        <ele>1199.38</ele>
        <time>2013-01-28T15:51:39Z</time>
      </trkpt>
      <trkpt lat="46.12556" lon="6.17238">
        <ele>1199.86</ele>
        <time>2013-01-28T15:51:40Z</time>
      </trkpt>
      <trkpt lat="46.12553" lon="6.17235">
        <ele>1199.38</ele>
        <time>2013-01-28T15:51:41Z</time>
      </trkpt>
      <trkpt lat="46.12551" lon="6.17232">
        <ele>1198.9</ele>
        <time>2013-01-28T15:51:42Z</time>
      </trkpt>
      <trkpt lat="46.12549" lon="6.1723">
        <ele>1199.38</ele>
        <time>2013-01-28T15:51:43Z</time>
      </trkpt>
      <trkpt lat="46.12546" lon="6.17227">
        <ele>1198.9</ele>
        <time>2013-01-28T15:51:44Z</time>
      </trkpt>
      <trkpt lat="46.12543" lon="6.17224">
        <ele>1198.9</ele>
        <time>2013-01-28T15:51:45Z</time>
      </trkpt>
      <trkpt lat="46.1254" lon="6.17222">
        <ele>1198.42</ele>
        <time>2013-01-28T15:51:46Z</time>
      </trkpt>
      <trkpt lat="46.12504" lon="6.172">
        <ele>1196.5</ele>
        <time>2013-01-28T15:51:59Z</time>
      </trkpt>
      <trkpt lat="46.12463" lon="6.1717">
        <ele>1194.09</ele>
        <time>2013-01-28T15:52:13Z</time>
      </trkpt>
      <trkpt lat="46.12427" lon="6.1715">
        <ele>1192.17</ele>
        <time>2013-01-28T15:52:26Z</time>
      </trkpt>
      <trkpt lat="46.12392" lon="6.17135">
        <ele>1189.77</ele>
        <time>2013-01-28T15:52:38Z</time>
      </trkpt>
      <trkpt lat="46.12355" lon="6.17107">
        <ele>1187.37</ele>
        <time>2013-01-28T15:52:52Z</time>
      </trkpt>
      <trkpt lat="46.12322" lon="6.17081">
        <ele>1184.96</ele>
        <time>2013-01-28T15:53:04Z</time>
      </trkpt>
      <trkpt lat="46.12291" lon="6.17056">
        <ele>1183.04</ele>
        <time>2013-01-28T15:53:16Z</time>
      </trkpt>
      <trkpt lat="46.12258" lon="6.17056">
        <ele>1180.64</ele>
        <time>2013-01-28T15:53:28Z</time>
      </trkpt>
      <trkpt lat="46.12228" lon="6.17076">
        <ele>1178.23</ele>
        <time>2013-01-28T15:53:40Z</time>
      </trkpt>
      <trkpt lat="46.12194" lon="6.17114">
        <ele>1176.31</ele>
        <time>2013-01-28T15:53:54Z</time>
      </trkpt>
      <trkpt lat="46.1216" lon="6.17131">
        <ele>1174.39</ele>
        <time>2013-01-28T15:54:06Z</time>
      </trkpt>
      <trkpt lat="46.12123" lon="6.17137">
        <ele>1171.02</ele>
        <time>2013-01-28T15:54:18Z</time>
      </trkpt>
      <trkpt lat="46.12089" lon="6.17162">
        <ele>1168.62</ele>
        <time>2013-01-28T15:54:30Z</time>
      </trkpt>
      <trkpt lat="46.12056" lon="6.17187">
        <ele>1166.7</ele>
        <time>2013-01-28T15:54:43Z</time>
      </trkpt>
      <trkpt lat="46.12011" lon="6.17192">
        <ele>1164.29</ele>
        <time>2013-01-28T15:54:58Z</time>
      </trkpt>
      <trkpt lat="46.11978" lon="6.17187">
        <ele>1161.89</ele>
        <time>2013-01-28T15:55:09Z</time>
      </trkpt>
      <trkpt lat="46.1195" lon="6.17168">
        <ele>1160.45</ele>
        <time>2013-01-28T15:55:21Z</time>
      </trkpt>
      <trkpt lat="46.11949" lon="6.17161">
        <ele>1160.45</ele>
        <time>2013-01-28T15:55:24Z</time>
      </trkpt>
      <trkpt lat="46.1195" lon="6.17157">
        <ele>1160.45</ele>
        <time>2013-01-28T15:55:25Z</time>
      </trkpt>
      <trkpt lat="46.11976" lon="6.17119">
        <ele>1158.53</ele>
        <time>2013-01-28T15:55:37Z</time>
      </trkpt>
      <trkpt lat="46.11982" lon="6.17108">
        <ele>1157.56</ele>
        <time>2013-01-28T15:55:41Z</time>
      </trkpt>
      <trkpt lat="46.11998" lon="6.17076">
        <ele>1154.2</ele>
        <time>2013-01-28T15:55:51Z</time>
      </trkpt>
      <trkpt lat="46.12018" lon="6.1703">
        <ele>1151.32</ele>
        <time>2013-01-28T15:56:03Z</time>
      </trkpt>
      <trkpt lat="46.12029" lon="6.16988">
        <ele>1147.95</ele>
        <time>2013-01-28T15:56:13Z</time>
      </trkpt>
      <trkpt lat="46.12038" lon="6.16955">
        <ele>1144.59</ele>
        <time>2013-01-28T15:56:22Z</time>
      </trkpt>
      <trkpt lat="46.12053" lon="6.16914">
        <ele>1141.7</ele>
        <time>2013-01-28T15:56:32Z</time>
      </trkpt>
      <trkpt lat="46.12065" lon="6.16894">
        <ele>1138.34</ele>
        <time>2013-01-28T15:56:40Z</time>
      </trkpt>
      <trkpt lat="46.12087" lon="6.16889">
        <ele>1135.45</ele>
        <time>2013-01-28T15:56:48Z</time>
      </trkpt>
      <trkpt lat="46.12109" lon="6.16876">
        <ele>1132.09</ele>
        <time>2013-01-28T15:56:57Z</time>
      </trkpt>
      <trkpt lat="46.12131" lon="6.16854">
        <ele>1129.21</ele>
        <time>2013-01-28T15:57:06Z</time>
      </trkpt>
      <trkpt lat="46.12145" lon="6.16835">
        <ele>1126.32</ele>
        <time>2013-01-28T15:57:13Z</time>
      </trkpt>
      <trkpt lat="46.12157" lon="6.16825">
        <ele>1124.4</ele>
        <time>2013-01-28T15:57:18Z</time>
      </trkpt>
      <trkpt lat="46.12182" lon="6.16808">
        <ele>1121.03</ele>
        <time>2013-01-28T15:57:27Z</time>
      </trkpt>
      <trkpt lat="46.122" lon="6.1679">
        <ele>1117.67</ele>
        <time>2013-01-28T15:57:35Z</time>
      </trkpt>
      <trkpt lat="46.12203" lon="6.16787">
        <ele>1117.19</ele>
        <time>2013-01-28T15:57:36Z</time>
      </trkpt>
      <trkpt lat="46.12222" lon="6.16764">
        <ele>1114.31</ele>
        <time>2013-01-28T15:57:45Z</time>
      </trkpt>
      <trkpt lat="46.12245" lon="6.16732">
        <ele>1110.94</ele>
        <time>2013-01-28T15:57:55Z</time>
      </trkpt>
      <trkpt lat="46.12262" lon="6.16721">
        <ele>1108.54</ele>
        <time>2013-01-28T15:58:01Z</time>
      </trkpt>
      <trkpt lat="46.12286" lon="6.16714">
        <ele>1105.65</ele>
        <time>2013-01-28T15:58:09Z</time>
      </trkpt>
      <trkpt lat="46.12316" lon="6.16715">
        <ele>1102.29</ele>
        <time>2013-01-28T15:58:19Z</time>
      </trkpt>
      <trkpt lat="46.12338" lon="6.16719">
        <ele>1099.4</ele>
        <time>2013-01-28T15:58:27Z</time>
      </trkpt>
      <trkpt lat="46.12344" lon="6.1672">
        <ele>1098.44</ele>
        <time>2013-01-28T15:58:29Z</time>
      </trkpt>
      <trkpt lat="46.12373" lon="6.16728">
        <ele>1095.08</ele>
        <time>2013-01-28T15:58:39Z</time>
      </trkpt>
      <trkpt lat="46.124" lon="6.16737">
        <ele>1091.71</ele>
        <time>2013-01-28T15:58:48Z</time>
      </trkpt>
      <trkpt lat="46.12421" lon="6.16742">
        <ele>1087.87</ele>
        <time>2013-01-28T15:58:56Z</time>
      </trkpt>
      <trkpt lat="46.12451" lon="6.16745">
        <ele>1084.99</ele>
        <time>2013-01-28T15:59:05Z</time>
      </trkpt>
      <trkpt lat="46.12479" lon="6.16747">
        <ele>1081.14</ele>
        <time>2013-01-28T15:59:15Z</time>
      </trkpt>
      <trkpt lat="46.12501" lon="6.1675">
        <ele>1077.78</ele>
        <time>2013-01-28T15:59:24Z</time>
      </trkpt>
      <trkpt lat="46.12531" lon="6.1675">
        <ele>1074.41</ele>
        <time>2013-01-28T15:59:33Z</time>
      </trkpt>
      <trkpt lat="46.12537" lon="6.16749">
        <ele>1073.93</ele>
        <time>2013-01-28T15:59:35Z</time>
      </trkpt>
      <trkpt lat="46.12559" lon="6.16732">
        <ele>1070.57</ele>
        <time>2013-01-28T15:59:43Z</time>
      </trkpt>
      <trkpt lat="46.12574" lon="6.16706">
        <ele>1067.68</ele>
        <time>2013-01-28T15:59:52Z</time>
      </trkpt>
      <trkpt lat="46.12592" lon="6.1669">
        <ele>1064.8</ele>
        <time>2013-01-28T16:00:01Z</time>
      </trkpt>
      <trkpt lat="46.12605" lon="6.16686">
        <ele>1062.39</ele>
        <time>2013-01-28T16:00:06Z</time>
      </trkpt>
      <trkpt lat="46.12626" lon="6.16668">
        <ele>1059.03</ele>
        <time>2013-01-28T16:00:14Z</time>
      </trkpt>
      <trkpt lat="46.12631" lon="6.16631">
        <ele>1055.67</ele>
        <time>2013-01-28T16:00:22Z</time>
      </trkpt>
      <trkpt lat="46.12629" lon="6.16617">
        <ele>1054.7</ele>
        <time>2013-01-28T16:00:25Z</time>
      </trkpt>
      <trkpt lat="46.12628" lon="6.16584">
        <ele>1051.34</ele>
        <time>2013-01-28T16:00:32Z</time>
      </trkpt>
      <trkpt lat="46.12628" lon="6.16545">
        <ele>1047.97</ele>
        <time>2013-01-28T16:00:41Z</time>
      </trkpt>
      <trkpt lat="46.12632" lon="6.16509">
        <ele>1044.61</ele>
        <time>2013-01-28T16:00:51Z</time>
      </trkpt>
      <trkpt lat="46.12633" lon="6.165">
        <ele>1043.65</ele>
        <time>2013-01-28T16:00:54Z</time>
      </trkpt>
      <trkpt lat="46.12632" lon="6.16498">
        <ele>1042.69</ele>
        <time>2013-01-28T16:00:55Z</time>
      </trkpt>
      <trkpt lat="46.1263" lon="6.16497">
        <ele>1042.69</ele>
        <time>2013-01-28T16:00:56Z</time>
      </trkpt>
      <trkpt lat="46.12628" lon="6.16498">
        <ele>1042.21</ele>
        <time>2013-01-28T16:00:57Z</time>
      </trkpt>
      <trkpt lat="46.12625" lon="6.165">
        <ele>1041.73</ele>
        <time>2013-01-28T16:00:58Z</time>
      </trkpt>
      <trkpt lat="46.12623" lon="6.16503">
        <ele>1041.25</ele>
        <time>2013-01-28T16:00:59Z</time>
      </trkpt>
      <trkpt lat="46.12621" lon="6.16506">
        <ele>1040.76</ele>
        <time>2013-01-28T16:01:00Z</time>
      </trkpt>
      <trkpt lat="46.12619" lon="6.1651">
        <ele>1040.76</ele>
        <time>2013-01-28T16:01:01Z</time>
      </trkpt>
      <trkpt lat="46.12618" lon="6.16515">
        <ele>1039.8</ele>
        <time>2013-01-28T16:01:02Z</time>
      </trkpt>
      <trkpt lat="46.12617" lon="6.16519">
        <ele>1039.8</ele>
        <time>2013-01-28T16:01:03Z</time>
      </trkpt>
      <trkpt lat="46.12603" lon="6.16547">
        <ele>1036.92</ele>
        <time>2013-01-28T16:01:11Z</time>
      </trkpt>
      <trkpt lat="46.12591" lon="6.16574">
        <ele>1033.55</ele>
        <time>2013-01-28T16:01:19Z</time>
      </trkpt>
      <trkpt lat="46.12582" lon="6.16601">
        <ele>1030.67</ele>
        <time>2013-01-28T16:01:26Z</time>
      </trkpt>
      <trkpt lat="46.12566" lon="6.16627">
        <ele>1027.31</ele>
        <time>2013-01-28T16:01:35Z</time>
      </trkpt>
      <trkpt lat="46.12545" lon="6.16626">
        <ele>1023.46</ele>
        <time>2013-01-28T16:01:44Z</time>
      </trkpt>
      <trkpt lat="46.12518" lon="6.16611">
        <ele>1020.1</ele>
        <time>2013-01-28T16:01:53Z</time>
      </trkpt>
      <trkpt lat="46.12494" lon="6.16576">
        <ele>1016.73</ele>
        <time>2013-01-28T16:02:02Z</time>
      </trkpt>
      <trkpt lat="46.12491" lon="6.16568">
        <ele>1015.77</ele>
        <time>2013-01-28T16:02:04Z</time>
      </trkpt>
      <trkpt lat="46.12477" lon="6.16548">
        <ele>1012.89</ele>
        <time>2013-01-28T16:02:10Z</time>
      </trkpt>
      <trkpt lat="46.12454" lon="6.16529">
        <ele>1010</ele>
        <time>2013-01-28T16:02:19Z</time>
      </trkpt>
      <trkpt lat="46.12435" lon="6.16511">
        <ele>1006.64</ele>
        <time>2013-01-28T16:02:27Z</time>
      </trkpt>
      <trkpt lat="46.12415" lon="6.16487">
        <ele>1002.79</ele>
        <time>2013-01-28T16:02:35Z</time>
      </trkpt>
      <trkpt lat="46.1241" lon="6.16483">
        <ele>1002.31</ele>
        <time>2013-01-28T16:02:37Z</time>
      </trkpt>
      <trkpt lat="46.12392" lon="6.16472">
        <ele>998.95</ele>
        <time>2013-01-28T16:02:45Z</time>
      </trkpt>
      <trkpt lat="46.12369" lon="6.16453">
        <ele>995.58</ele>
        <time>2013-01-28T16:02:54Z</time>
      </trkpt>
      <trkpt lat="46.12347" lon="6.16432">
        <ele>992.7</ele>
        <time>2013-01-28T16:03:02Z</time>
      </trkpt>
      <trkpt lat="46.12346" lon="6.16429">
        <ele>992.22</ele>
        <time>2013-01-28T16:03:03Z</time>
      </trkpt>
      <trkpt lat="46.12352" lon="6.16419">
        <ele>990.3</ele>
        <time>2013-01-28T16:03:08Z</time>
      </trkpt>
      <trkpt lat="46.12358" lon="6.16419">
        <ele>989.81</ele>
        <time>2013-01-28T16:03:10Z</time>
      </trkpt>
      <trkpt lat="46.12395" lon="6.1643">
        <ele>986.45</ele>
        <time>2013-01-28T16:03:21Z</time>
      </trkpt>
      <trkpt lat="46.12409" lon="6.16423">
        <ele>984.05</ele>
        <time>2013-01-28T16:03:26Z</time>
      </trkpt>
      <trkpt lat="46.12437" lon="6.16424">
        <ele>981.16</ele>
        <time>2013-01-28T16:03:35Z</time>
      </trkpt>
      <trkpt lat="46.12464" lon="6.16435">
        <ele>978.28</ele>
        <time>2013-01-28T16:03:44Z</time>
      </trkpt>
      <trkpt lat="46.12485" lon="6.16436">
        <ele>974.91</ele>
        <time>2013-01-28T16:03:52Z</time>
      </trkpt>
      <trkpt lat="46.12489" lon="6.16432">
        <ele>973.95</ele>
        <time>2013-01-28T16:03:54Z</time>
      </trkpt>
      <trkpt lat="46.12483" lon="6.16387">
        <ele>970.59</ele>
        <time>2013-01-28T16:04:04Z</time>
      </trkpt>
      <trkpt lat="46.12469" lon="6.1635">
        <ele>967.7</ele>
        <time>2013-01-28T16:04:12Z</time>
      </trkpt>
      <trkpt lat="46.12461" lon="6.16317">
        <ele>964.34</ele>
        <time>2013-01-28T16:04:20Z</time>
      </trkpt>
      <trkpt lat="46.12456" lon="6.16303">
        <ele>962.9</ele>
        <time>2013-01-28T16:04:24Z</time>
      </trkpt>
      <trkpt lat="46.12454" lon="6.16303">
        <ele>962.42</ele>
        <time>2013-01-28T16:04:25Z</time>
      </trkpt>
      <trkpt lat="46.12453" lon="6.16304">
        <ele>961.94</ele>
        <time>2013-01-28T16:04:26Z</time>
      </trkpt>
      <trkpt lat="46.12446" lon="6.16334">
        <ele>958.09</ele>
        <time>2013-01-28T16:04:34Z</time>
      </trkpt>
      <trkpt lat="46.1244" lon="6.16361">
        <ele>954.73</ele>
        <time>2013-01-28T16:04:43Z</time>
      </trkpt>
      <trkpt lat="46.12435" lon="6.16359">
        <ele>954.25</ele>
        <time>2013-01-28T16:04:44Z</time>
      </trkpt>
      <trkpt lat="46.12432" lon="6.16356">
        <ele>953.77</ele>
        <time>2013-01-28T16:04:45Z</time>
      </trkpt>
      <trkpt lat="46.12429" lon="6.16354">
        <ele>953.28</ele>
        <time>2013-01-28T16:04:46Z</time>
      </trkpt>
      <trkpt lat="46.12426" lon="6.16352">
        <ele>953.28</ele>
        <time>2013-01-28T16:04:47Z</time>
      </trkpt>
      <trkpt lat="46.12423" lon="6.1635">
        <ele>952.8</ele>
        <time>2013-01-28T16:04:48Z</time>
      </trkpt>
      <trkpt lat="46.12421" lon="6.16349">
        <ele>952.8</ele>
        <time>2013-01-28T16:04:49Z</time>
      </trkpt>
      <trkpt lat="46.12399" lon="6.16309">
        <ele>949.44</ele>
        <time>2013-01-28T16:04:58Z</time>
      </trkpt>
      <trkpt lat="46.12384" lon="6.1629">
        <ele>946.56</ele>
        <time>2013-01-28T16:05:05Z</time>
      </trkpt>
      <trkpt lat="46.1236" lon="6.16273">
        <ele>943.19</ele>
        <time>2013-01-28T16:05:14Z</time>
      </trkpt>
      <trkpt lat="46.12339" lon="6.16272">
        <ele>940.31</ele>
        <time>2013-01-28T16:05:22Z</time>
      </trkpt>
      <trkpt lat="46.1231" lon="6.16277">
        <ele>936.94</ele>
        <time>2013-01-28T16:05:32Z</time>
      </trkpt>
      <trkpt lat="46.12304" lon="6.16278">
        <ele>935.5</ele>
        <time>2013-01-28T16:05:36Z</time>
      </trkpt>
      <trkpt lat="46.12303" lon="6.16272">
        <ele>935.02</ele>
        <time>2013-01-28T16:05:38Z</time>
      </trkpt>
      <trkpt lat="46.12305" lon="6.16269">
        <ele>934.54</ele>
        <time>2013-01-28T16:05:39Z</time>
      </trkpt>
      <trkpt lat="46.12307" lon="6.16267">
        <ele>934.54</ele>
        <time>2013-01-28T16:05:40Z</time>
      </trkpt>
      <trkpt lat="46.12333" lon="6.16255">
        <ele>931.17</ele>
        <time>2013-01-28T16:05:49Z</time>
      </trkpt>
      <trkpt lat="46.12351" lon="6.16239">
        <ele>928.29</ele>
        <time>2013-01-28T16:05:57Z</time>
      </trkpt>
      <trkpt lat="46.12365" lon="6.16209">
        <ele>925.41</ele>
        <time>2013-01-28T16:06:05Z</time>
      </trkpt>
      <trkpt lat="46.12394" lon="6.16219">
        <ele>922.04</ele>
        <time>2013-01-28T16:06:16Z</time>
      </trkpt>
      <trkpt lat="46.12413" lon="6.16233">
        <ele>918.68</ele>
        <time>2013-01-28T16:06:23Z</time>
      </trkpt>
      <trkpt lat="46.12434" lon="6.16218">
        <ele>915.79</ele>
        <time>2013-01-28T16:06:32Z</time>
      </trkpt>
      <trkpt lat="46.12446" lon="6.16181">
        <ele>912.43</ele>
        <time>2013-01-28T16:06:41Z</time>
      </trkpt>
      <trkpt lat="46.12435" lon="6.16143">
        <ele>909.54</ele>
        <time>2013-01-28T16:06:49Z</time>
      </trkpt>
      <trkpt lat="46.12423" lon="6.16116">
        <ele>907.14</ele>
        <time>2013-01-28T16:06:56Z</time>
      </trkpt>
      <trkpt lat="46.12423" lon="6.161">
        <ele>904.74</ele>
        <time>2013-01-28T16:07:00Z</time>
      </trkpt>
      <trkpt lat="46.1244" lon="6.16077">
        <ele>901.85</ele>
        <time>2013-01-28T16:07:10Z</time>
      </trkpt>
      <trkpt lat="46.12477" lon="6.16084">
        <ele>898.97</ele>
        <time>2013-01-28T16:07:18Z</time>
      </trkpt>
      <trkpt lat="46.12506" lon="6.16086">
        <ele>895.61</ele>
        <time>2013-01-28T16:07:27Z</time>
      </trkpt>
      <trkpt lat="46.12527" lon="6.16085">
        <ele>892.72</ele>
        <time>2013-01-28T16:07:34Z</time>
      </trkpt>
      <trkpt lat="46.1255" lon="6.16079">
        <ele>889.84</ele>
        <time>2013-01-28T16:07:43Z</time>
      </trkpt>
      <trkpt lat="46.12575" lon="6.16077">
        <ele>886.47</ele>
        <time>2013-01-28T16:07:52Z</time>
      </trkpt>
      <trkpt lat="46.12595" lon="6.16096">
        <ele>883.11</ele>
        <time>2013-01-28T16:08:00Z</time>
      </trkpt>
      <trkpt lat="46.12617" lon="6.16116">
        <ele>880.22</ele>
        <time>2013-01-28T16:08:09Z</time>
      </trkpt>
      <trkpt lat="46.12642" lon="6.16132">
        <ele>876.86</ele>
        <time>2013-01-28T16:08:18Z</time>
      </trkpt>
      <trkpt lat="46.12657" lon="6.16136">
        <ele>874.94</ele>
        <time>2013-01-28T16:08:23Z</time>
      </trkpt>
      <trkpt lat="46.12684" lon="6.16139">
        <ele>872.05</ele>
        <time>2013-01-28T16:08:31Z</time>
      </trkpt>
      <trkpt lat="46.12706" lon="6.16131">
        <ele>868.69</ele>
        <time>2013-01-28T16:08:40Z</time>
      </trkpt>
      <trkpt lat="46.12724" lon="6.16132">
        <ele>866.77</ele>
        <time>2013-01-28T16:08:47Z</time>
      </trkpt>
      <trkpt lat="46.12751" lon="6.16148">
        <ele>862.92</ele>
        <time>2013-01-28T16:08:57Z</time>
      </trkpt>
      <trkpt lat="46.1276" lon="6.16152">
        <ele>861</ele>
        <time>2013-01-28T16:09:01Z</time>
      </trkpt>
      <trkpt lat="46.12762" lon="6.1615">
        <ele>860.52</ele>
        <time>2013-01-28T16:09:02Z</time>
      </trkpt>
      <trkpt lat="46.12766" lon="6.1614">
        <ele>858.59</ele>
        <time>2013-01-28T16:09:08Z</time>
      </trkpt>
      <trkpt lat="46.12739" lon="6.16106">
        <ele>855.23</ele>
        <time>2013-01-28T16:09:17Z</time>
      </trkpt>
      <trkpt lat="46.12716" lon="6.16092">
        <ele>852.83</ele>
        <time>2013-01-28T16:09:23Z</time>
      </trkpt>
      <trkpt lat="46.12687" lon="6.16075">
        <ele>849.46</ele>
        <time>2013-01-28T16:09:31Z</time>
      </trkpt>
      <trkpt lat="46.12664" lon="6.16064">
        <ele>846.58</ele>
        <time>2013-01-28T16:09:38Z</time>
      </trkpt>
      <trkpt lat="46.12636" lon="6.16042">
        <ele>842.73</ele>
        <time>2013-01-28T16:09:48Z</time>
      </trkpt>
      <trkpt lat="46.12622" lon="6.16018">
        <ele>839.85</ele>
        <time>2013-01-28T16:09:56Z</time>
      </trkpt>
      <trkpt lat="46.12621" lon="6.16007">
        <ele>839.37</ele>
        <time>2013-01-28T16:09:59Z</time>
      </trkpt>
      <trkpt lat="46.12631" lon="6.15998">
        <ele>837.45</ele>
        <time>2013-01-28T16:10:03Z</time>
      </trkpt>
      <trkpt lat="46.12659" lon="6.15988">
        <ele>834.08</ele>
        <time>2013-01-28T16:10:11Z</time>
      </trkpt>
      <trkpt lat="46.12689" lon="6.1599">
        <ele>830.72</ele>
        <time>2013-01-28T16:10:21Z</time>
      </trkpt>
      <trkpt lat="46.12711" lon="6.16003">
        <ele>827.35</ele>
        <time>2013-01-28T16:10:29Z</time>
      </trkpt>
      <trkpt lat="46.12733" lon="6.16014">
        <ele>823.99</ele>
        <time>2013-01-28T16:10:37Z</time>
      </trkpt>
      <trkpt lat="46.1277" lon="6.16032">
        <ele>821.1</ele>
        <time>2013-01-28T16:10:48Z</time>
      </trkpt>
      <trkpt lat="46.12773" lon="6.16034">
        <ele>821.1</ele>
        <time>2013-01-28T16:10:49Z</time>
      </trkpt>
      <trkpt lat="46.12777" lon="6.16023">
        <ele>818.7</ele>
        <time>2013-01-28T16:10:53Z</time>
      </trkpt>
      <trkpt lat="46.12776" lon="6.1602">
        <ele>818.22</ele>
        <time>2013-01-28T16:10:54Z</time>
      </trkpt>
      <trkpt lat="46.12741" lon="6.15985">
        <ele>814.37</ele>
        <time>2013-01-28T16:11:04Z</time>
      </trkpt>
      <trkpt lat="46.1272" lon="6.1596">
        <ele>811.49</ele>
        <time>2013-01-28T16:11:12Z</time>
      </trkpt>
      <trkpt lat="46.12707" lon="6.15943">
        <ele>809.09</ele>
        <time>2013-01-28T16:11:18Z</time>
      </trkpt>
      <trkpt lat="46.12686" lon="6.15921">
        <ele>805.72</ele>
        <time>2013-01-28T16:11:26Z</time>
      </trkpt>
      <trkpt lat="46.1267" lon="6.15893">
        <ele>802.84</ele>
        <time>2013-01-28T16:11:34Z</time>
      </trkpt>
      <trkpt lat="46.12654" lon="6.15873">
        <ele>798.99</ele>
        <time>2013-01-28T16:11:41Z</time>
      </trkpt>
      <trkpt lat="46.12651" lon="6.15871">
        <ele>798.99</ele>
        <time>2013-01-28T16:11:42Z</time>
      </trkpt>
      <trkpt lat="46.12629" lon="6.15859">
        <ele>795.63</ele>
        <time>2013-01-28T16:11:51Z</time>
      </trkpt>
      <trkpt lat="46.12607" lon="6.15848">
        <ele>792.26</ele>
        <time>2013-01-28T16:11:59Z</time>
      </trkpt>
      <trkpt lat="46.12586" lon="6.15838">
        <ele>789.38</ele>
        <time>2013-01-28T16:12:06Z</time>
      </trkpt>
      <trkpt lat="46.12583" lon="6.15837">
        <ele>788.9</ele>
        <time>2013-01-28T16:12:07Z</time>
      </trkpt>
      <trkpt lat="46.12556" lon="6.15824">
        <ele>785.53</ele>
        <time>2013-01-28T16:12:16Z</time>
      </trkpt>
      <trkpt lat="46.12532" lon="6.15804">
        <ele>782.65</ele>
        <time>2013-01-28T16:12:25Z</time>
      </trkpt>
      <trkpt lat="46.12516" lon="6.15785">
        <ele>779.77</ele>
        <time>2013-01-28T16:12:33Z</time>
      </trkpt>
      <trkpt lat="46.12514" lon="6.15756">
        <ele>777.36</ele>
        <time>2013-01-28T16:12:43Z</time>
      </trkpt>
      <trkpt lat="46.12534" lon="6.15752">
        <ele>774.48</ele>
        <time>2013-01-28T16:12:49Z</time>
      </trkpt>
      <trkpt lat="46.1256" lon="6.15771">
        <ele>771.6</ele>
        <time>2013-01-28T16:12:58Z</time>
      </trkpt>
      <trkpt lat="46.12576" lon="6.1578">
        <ele>769.19</ele>
        <time>2013-01-28T16:13:04Z</time>
      </trkpt>
      <trkpt lat="46.12592" lon="6.15772">
        <ele>766.79</ele>
        <time>2013-01-28T16:13:09Z</time>
      </trkpt>
      <trkpt lat="46.12584" lon="6.15729">
        <ele>763.42</ele>
        <time>2013-01-28T16:13:19Z</time>
      </trkpt>
      <trkpt lat="46.12593" lon="6.15714">
        <ele>760.06</ele>
        <time>2013-01-28T16:13:27Z</time>
      </trkpt>
      <trkpt lat="46.12619" lon="6.15713">
        <ele>756.69</ele>
        <time>2013-01-28T16:13:36Z</time>
      </trkpt>
      <trkpt lat="46.12647" lon="6.15705">
        <ele>753.33</ele>
        <time>2013-01-28T16:13:46Z</time>
      </trkpt>
      <trkpt lat="46.12654" lon="6.15707">
        <ele>751.89</ele>
        <time>2013-01-28T16:13:49Z</time>
      </trkpt>
      <trkpt lat="46.12662" lon="6.15697">
        <ele>749.97</ele>
        <time>2013-01-28T16:13:53Z</time>
      </trkpt>
      <trkpt lat="46.12652" lon="6.15656">
        <ele>746.6</ele>
        <time>2013-01-28T16:14:03Z</time>
      </trkpt>
      <trkpt lat="46.12631" lon="6.1563">
        <ele>743.72</ele>
        <time>2013-01-28T16:14:11Z</time>
      </trkpt>
      <trkpt lat="46.12621" lon="6.15606">
        <ele>740.35</ele>
        <time>2013-01-28T16:14:20Z</time>
      </trkpt>
      <trkpt lat="46.12622" lon="6.15605">
        <ele>740.35</ele>
        <time>2013-01-28T16:14:21Z</time>
      </trkpt>
      <trkpt lat="46.12644" lon="6.15605">
        <ele>738.43</ele>
        <time>2013-01-28T16:14:26Z</time>
      </trkpt>
      <trkpt lat="46.12671" lon="6.1562">
        <ele>735.07</ele>
        <time>2013-01-28T16:14:36Z</time>
      </trkpt>
      <trkpt lat="46.12697" lon="6.15636">
        <ele>731.7</ele>
        <time>2013-01-28T16:14:45Z</time>
      </trkpt>
      <trkpt lat="46.12704" lon="6.1564">
        <ele>731.22</ele>
        <time>2013-01-28T16:14:47Z</time>
      </trkpt>
      <trkpt lat="46.12732" lon="6.15653">
        <ele>727.86</ele>
        <time>2013-01-28T16:14:57Z</time>
      </trkpt>
      <trkpt lat="46.12777" lon="6.15681">
        <ele>725.93</ele>
        <time>2013-01-28T16:15:14Z</time>
      </trkpt>
      <trkpt lat="46.12831" lon="6.15695">
        <ele>723.05</ele>
        <time>2013-01-28T16:15:31Z</time>
      </trkpt>
      <trkpt lat="46.12864" lon="6.15705">
        <ele>719.68</ele>
        <time>2013-01-28T16:15:41Z</time>
      </trkpt>
      <trkpt lat="46.12891" lon="6.15722">
        <ele>716.8</ele>
        <time>2013-01-28T16:15:50Z</time>
      </trkpt>
      <trkpt lat="46.12909" lon="6.15746">
        <ele>713.44</ele>
        <time>2013-01-28T16:15:59Z</time>
      </trkpt>
      <trkpt lat="46.12933" lon="6.15764">
        <ele>710.55</ele>
        <time>2013-01-28T16:16:08Z</time>
      </trkpt>
      <trkpt lat="46.12962" lon="6.15779">
        <ele>707.19</ele>
        <time>2013-01-28T16:16:18Z</time>
      </trkpt>
      <trkpt lat="46.12984" lon="6.15804">
        <ele>704.3</ele>
        <time>2013-01-28T16:16:27Z</time>
      </trkpt>
      <trkpt lat="46.13014" lon="6.15826">
        <ele>700.94</ele>
        <time>2013-01-28T16:16:38Z</time>
      </trkpt>
      <trkpt lat="46.1302" lon="6.15827">
        <ele>699.98</ele>
        <time>2013-01-28T16:16:40Z</time>
      </trkpt>
      <trkpt lat="46.13026" lon="6.15821">
        <ele>698.53</ele>
        <time>2013-01-28T16:16:42Z</time>
      </trkpt>
      <trkpt lat="46.13023" lon="6.15801">
        <ele>697.57</ele>
        <time>2013-01-28T16:16:45Z</time>
      </trkpt>
      <trkpt lat="46.12998" lon="6.15754">
        <ele>694.21</ele>
        <time>2013-01-28T16:16:56Z</time>
      </trkpt>
      <trkpt lat="46.12994" lon="6.15731">
        <ele>692.29</ele>
        <time>2013-01-28T16:17:02Z</time>
      </trkpt>
      <trkpt lat="46.13003" lon="6.15722">
        <ele>689.88</ele>
        <time>2013-01-28T16:17:07Z</time>
      </trkpt>
      <trkpt lat="46.13042" lon="6.1574">
        <ele>687</ele>
        <time>2013-01-28T16:17:20Z</time>
      </trkpt>
      <trkpt lat="46.13073" lon="6.15765">
        <ele>685.08</ele>
        <time>2013-01-28T16:17:32Z</time>
      </trkpt>
      <trkpt lat="46.13113" lon="6.15776">
        <ele>683.15</ele>
        <time>2013-01-28T16:17:46Z</time>
      </trkpt>
      <trkpt lat="46.13129" lon="6.15774">
        <ele>681.23</ele>
        <time>2013-01-28T16:17:51Z</time>
      </trkpt>
      <trkpt lat="46.13172" lon="6.15771">
        <ele>678.35</ele>
        <time>2013-01-28T16:18:05Z</time>
      </trkpt>
      <trkpt lat="46.132" lon="6.15751">
        <ele>674.98</ele>
        <time>2013-01-28T16:18:17Z</time>
      </trkpt>
      <trkpt lat="46.1322" lon="6.15726">
        <ele>672.1</ele>
        <time>2013-01-28T16:18:28Z</time>
      </trkpt>
      <trkpt lat="46.13221" lon="6.15717">
        <ele>671.62</ele>
        <time>2013-01-28T16:18:30Z</time>
      </trkpt>
      <trkpt lat="46.1322" lon="6.15713">
        <ele>671.14</ele>
        <time>2013-01-28T16:18:31Z</time>
      </trkpt>
      <trkpt lat="46.13219" lon="6.1571">
        <ele>670.66</ele>
        <time>2013-01-28T16:18:32Z</time>
      </trkpt>
      <trkpt lat="46.13217" lon="6.15707">
        <ele>670.18</ele>
        <time>2013-01-28T16:18:33Z</time>
      </trkpt>
      <trkpt lat="46.13213" lon="6.15705">
        <ele>670.18</ele>
        <time>2013-01-28T16:18:34Z</time>
      </trkpt>
      <trkpt lat="46.1321" lon="6.15703">
        <ele>669.7</ele>
        <time>2013-01-28T16:18:35Z</time>
      </trkpt>
      <trkpt lat="46.13196" lon="6.15693">
        <ele>669.7</ele>
        <time>2013-01-28T16:18:48Z</time>
      </trkpt>
      <trkpt lat="46.13196" lon="6.15692">
        <ele>666.33</ele>
        <time>2013-01-28T16:18:50Z</time>
      </trkpt>
      <trkpt lat="46.13197" lon="6.15692">
        <ele>672.58</ele>
        <time>2013-01-28T16:18:51Z</time>
      </trkpt>
      <trkpt lat="46.13197" lon="6.15692">
        <ele>669.22</ele>
        <time>2013-01-28T16:18:52Z</time>
      </trkpt>
    </trkseg>
  </trk>
</gpx>